<?xml version="1.0" encoding="UTF-8" standalone="no" ?>
<gpx xmlns="http://www.topografix.com/GPX/1/1" xmlns:xsi="http://www.w3.org/2001/XMLSchema-instance" xsi:schemaLocation="http://www.topografix.com/GPX/1/1 http://www.topografix.com/GPX/1/1/gpx.xsd" version="1.1" creator="VisuGPX - https://www.visugpx.com">
  <metadata>
    <name>Du sancy au plomb - Etape 3</name>
    <desc><![CDATA[Randonnée VTT du sommet du Sancy au sommet du Plomb du cantal - Etape 3]]></desc>
  </metadata>
  <trk>
    <name><![CDATA[Du Sancy au Plomb du Cantal - Chavagnac - Super Lioran (Etape3/3) - 5937 - UtagawaVTT.com]]></name>
    <trkseg>
      <trkpt lat="45.15288" lon="2.88224">
        <ele>1087.169067</ele>
        <time>2011-09-01T14:09:27Z</time>
      </trkpt>
      <trkpt lat="45.15282" lon="2.88195">
        <ele>1086.788574</ele>
        <time>2011-09-01T14:09:35Z</time>
      </trkpt>
      <trkpt lat="45.15283" lon="2.88181">
        <ele>1087.150757</ele>
        <time>2011-09-01T14:09:39Z</time>
      </trkpt>
      <trkpt lat="45.15274" lon="2.88161">
        <ele>1086.279541</ele>
        <time>2011-09-01T14:09:46Z</time>
      </trkpt>
      <trkpt lat="45.15272" lon="2.8816">
        <ele>1085.995605</ele>
        <time>2011-09-01T14:09:47Z</time>
      </trkpt>
      <trkpt lat="45.1527" lon="2.88159">
        <ele>1085.711426</ele>
        <time>2011-09-01T14:09:48Z</time>
      </trkpt>
      <trkpt lat="45.15268" lon="2.88158">
        <ele>1085.485107</ele>
        <time>2011-09-01T14:09:49Z</time>
      </trkpt>
      <trkpt lat="45.15267" lon="2.88155">
        <ele>1085.422485</ele>
        <time>2011-09-01T14:09:49Z</time>
      </trkpt>
      <trkpt lat="45.15265" lon="2.88154">
        <ele>1085.29834</ele>
        <time>2011-09-01T14:09:50Z</time>
      </trkpt>
      <trkpt lat="45.15263" lon="2.88152">
        <ele>1085.124634</ele>
        <time>2011-09-01T14:09:51Z</time>
      </trkpt>
      <trkpt lat="45.1526" lon="2.8815">
        <ele>1084.901001</ele>
        <time>2011-09-01T14:09:52Z</time>
      </trkpt>
      <trkpt lat="45.15258" lon="2.8815">
        <ele>1084.714844</ele>
        <time>2011-09-01T14:09:53Z</time>
      </trkpt>
      <trkpt lat="45.15255" lon="2.88149">
        <ele>1084.47876</ele>
        <time>2011-09-01T14:09:54Z</time>
      </trkpt>
      <trkpt lat="45.15253" lon="2.88147">
        <ele>1084.304199</ele>
        <time>2011-09-01T14:09:55Z</time>
      </trkpt>
      <trkpt lat="45.1525" lon="2.88146">
        <ele>1084.079712</ele>
        <time>2011-09-01T14:09:57Z</time>
      </trkpt>
      <trkpt lat="45.15248" lon="2.88144">
        <ele>1083.904907</ele>
        <time>2011-09-01T14:09:58Z</time>
      </trkpt>
      <trkpt lat="45.15246" lon="2.88143">
        <ele>1083.817383</ele>
        <time>2011-09-01T14:09:58Z</time>
      </trkpt>
      <trkpt lat="45.15244" lon="2.8814">
        <ele>1083.616699</ele>
        <time>2011-09-01T14:10:00Z</time>
      </trkpt>
      <trkpt lat="45.15242" lon="2.88139">
        <ele>1083.47937</ele>
        <time>2011-09-01T14:10:00Z</time>
      </trkpt>
      <trkpt lat="45.15219" lon="2.88107">
        <ele>1081.66626</ele>
        <time>2011-09-01T14:10:13Z</time>
      </trkpt>
      <trkpt lat="45.15204" lon="2.88091">
        <ele>1080.68396</ele>
        <time>2011-09-01T14:10:21Z</time>
      </trkpt>
      <trkpt lat="45.15192" lon="2.88077">
        <ele>1079.888428</ele>
        <time>2011-09-01T14:10:27Z</time>
      </trkpt>
      <trkpt lat="45.15185" lon="2.88072">
        <ele>1079.395386</ele>
        <time>2011-09-01T14:10:30Z</time>
      </trkpt>
      <trkpt lat="45.15098" lon="2.88111">
        <ele>1076.125977</ele>
        <time>2011-09-01T14:11:07Z</time>
      </trkpt>
      <trkpt lat="45.15026" lon="2.88149">
        <ele>1075.922485</ele>
        <time>2011-09-01T14:11:37Z</time>
      </trkpt>
      <trkpt lat="45.14966" lon="2.88169">
        <ele>1077.64624</ele>
        <time>2011-09-01T14:12:02Z</time>
      </trkpt>
      <trkpt lat="45.14937" lon="2.88183">
        <ele>1078.859375</ele>
        <time>2011-09-01T14:12:14Z</time>
      </trkpt>
      <trkpt lat="45.14905" lon="2.88213">
        <ele>1080.114868</ele>
        <time>2011-09-01T14:12:30Z</time>
      </trkpt>
      <trkpt lat="45.14888" lon="2.88221">
        <ele>1081.99939</ele>
        <time>2011-09-01T14:12:37Z</time>
      </trkpt>
      <trkpt lat="45.14873" lon="2.88227">
        <ele>1083.696533</ele>
        <time>2011-09-01T14:12:43Z</time>
      </trkpt>
      <trkpt lat="45.14859" lon="2.88223">
        <ele>1085.577637</ele>
        <time>2011-09-01T14:12:49Z</time>
      </trkpt>
      <trkpt lat="45.14851" lon="2.88213">
        <ele>1086.914063</ele>
        <time>2011-09-01T14:12:53Z</time>
      </trkpt>
      <trkpt lat="45.14856" lon="2.88203">
        <ele>1086.587402</ele>
        <time>2011-09-01T14:12:57Z</time>
      </trkpt>
      <trkpt lat="45.14858" lon="2.88178">
        <ele>1087.636475</ele>
        <time>2011-09-01T14:13:04Z</time>
      </trkpt>
      <trkpt lat="45.14857" lon="2.88176">
        <ele>1087.865112</ele>
        <time>2011-09-01T14:13:04Z</time>
      </trkpt>
      <trkpt lat="45.14857" lon="2.88171">
        <ele>1088.223389</ele>
        <time>2011-09-01T14:13:06Z</time>
      </trkpt>
      <trkpt lat="45.14856" lon="2.88168">
        <ele>1088.585083</ele>
        <time>2011-09-01T14:13:07Z</time>
      </trkpt>
      <trkpt lat="45.14856" lon="2.88165">
        <ele>1088.739868</ele>
        <time>2011-09-01T14:13:07Z</time>
      </trkpt>
      <trkpt lat="45.14856" lon="2.88162">
        <ele>1089.078369</ele>
        <time>2011-09-01T14:13:09Z</time>
      </trkpt>
      <trkpt lat="45.14855" lon="2.88158">
        <ele>1089.419067</ele>
        <time>2011-09-01T14:13:10Z</time>
      </trkpt>
      <trkpt lat="45.14854" lon="2.88156">
        <ele>1089.740234</ele>
        <time>2011-09-01T14:13:10Z</time>
      </trkpt>
      <trkpt lat="45.14852" lon="2.88153">
        <ele>1090.200562</ele>
        <time>2011-09-01T14:13:11Z</time>
      </trkpt>
      <trkpt lat="45.14851" lon="2.88151">
        <ele>1090.612671</ele>
        <time>2011-09-01T14:13:12Z</time>
      </trkpt>
      <trkpt lat="45.14849" lon="2.88148">
        <ele>1091.11377</ele>
        <time>2011-09-01T14:13:13Z</time>
      </trkpt>
      <trkpt lat="45.14846" lon="2.88146">
        <ele>1091.705688</ele>
        <time>2011-09-01T14:13:15Z</time>
      </trkpt>
      <trkpt lat="45.14845" lon="2.88144">
        <ele>1092.132324</ele>
        <time>2011-09-01T14:13:15Z</time>
      </trkpt>
      <trkpt lat="45.14842" lon="2.88142">
        <ele>1092.649536</ele>
        <time>2011-09-01T14:13:17Z</time>
      </trkpt>
      <trkpt lat="45.14834" lon="2.88134">
        <ele>1094.648804</ele>
        <time>2011-09-01T14:13:20Z</time>
      </trkpt>
      <trkpt lat="45.14807" lon="2.88124">
        <ele>1100.452148</ele>
        <time>2011-09-01T14:13:32Z</time>
      </trkpt>
      <trkpt lat="45.14787" lon="2.88114">
        <ele>1105.481934</ele>
        <time>2011-09-01T14:13:40Z</time>
      </trkpt>
      <trkpt lat="45.14774" lon="2.88098">
        <ele>1109.842285</ele>
        <time>2011-09-01T14:13:47Z</time>
      </trkpt>
      <trkpt lat="45.14757" lon="2.88061">
        <ele>1116.706055</ele>
        <time>2011-09-01T14:13:59Z</time>
      </trkpt>
      <trkpt lat="45.1475" lon="2.88043">
        <ele>1120.22583</ele>
        <time>2011-09-01T14:14:05Z</time>
      </trkpt>
      <trkpt lat="45.14747" lon="2.88032">
        <ele>1122.20752</ele>
        <time>2011-09-01T14:14:09Z</time>
      </trkpt>
      <trkpt lat="45.1468" lon="2.8799">
        <ele>1133.810669</ele>
        <time>2011-09-01T14:14:38Z</time>
      </trkpt>
      <trkpt lat="45.14653" lon="2.87977">
        <ele>1136.204956</ele>
        <time>2011-09-01T14:14:49Z</time>
      </trkpt>
      <trkpt lat="45.14637" lon="2.87976">
        <ele>1137.247192</ele>
        <time>2011-09-01T14:14:56Z</time>
      </trkpt>
      <trkpt lat="45.14618" lon="2.87985">
        <ele>1138.468384</ele>
        <time>2011-09-01T14:15:04Z</time>
      </trkpt>
      <trkpt lat="45.14544" lon="2.88046">
        <ele>1148.432983</ele>
        <time>2011-09-01T14:15:38Z</time>
      </trkpt>
      <trkpt lat="45.14522" lon="2.88071">
        <ele>1153.80542</ele>
        <time>2011-09-01T14:15:49Z</time>
      </trkpt>
      <trkpt lat="45.14517" lon="2.88088">
        <ele>1154.970703</ele>
        <time>2011-09-01T14:15:55Z</time>
      </trkpt>
      <trkpt lat="45.14511" lon="2.88099">
        <ele>1156.374878</ele>
        <time>2011-09-01T14:15:58Z</time>
      </trkpt>
      <trkpt lat="45.14501" lon="2.88117">
        <ele>1158.683472</ele>
        <time>2011-09-01T14:16:05Z</time>
      </trkpt>
      <trkpt lat="45.14495" lon="2.88137">
        <ele>1159.630859</ele>
        <time>2011-09-01T14:16:11Z</time>
      </trkpt>
      <trkpt lat="45.14495" lon="2.88153">
        <ele>1159.225098</ele>
        <time>2011-09-01T14:16:16Z</time>
      </trkpt>
      <trkpt lat="45.14496" lon="2.88174">
        <ele>1158.631348</ele>
        <time>2011-09-01T14:16:22Z</time>
      </trkpt>
      <trkpt lat="45.14497" lon="2.8818">
        <ele>1158.439087</ele>
        <time>2011-09-01T14:16:23Z</time>
      </trkpt>
      <trkpt lat="45.14464" lon="2.88221">
        <ele>1163.014038</ele>
        <time>2011-09-01T14:16:41Z</time>
      </trkpt>
      <trkpt lat="45.14456" lon="2.88224">
        <ele>1164.099121</ele>
        <time>2011-09-01T14:16:44Z</time>
      </trkpt>
      <trkpt lat="45.14455" lon="2.88215">
        <ele>1164.5354</ele>
        <time>2011-09-01T14:16:46Z</time>
      </trkpt>
      <trkpt lat="45.14448" lon="2.88198">
        <ele>1165.801147</ele>
        <time>2011-09-01T14:16:52Z</time>
      </trkpt>
      <trkpt lat="45.14444" lon="2.88178">
        <ele>1167.005371</ele>
        <time>2011-09-01T14:16:58Z</time>
      </trkpt>
      <trkpt lat="45.14437" lon="2.88147">
        <ele>1169.013428</ele>
        <time>2011-09-01T14:17:07Z</time>
      </trkpt>
      <trkpt lat="45.14437" lon="2.88135">
        <ele>1169.460815</ele>
        <time>2011-09-01T14:17:10Z</time>
      </trkpt>
      <trkpt lat="45.14438" lon="2.88098">
        <ele>1170.596313</ele>
        <time>2011-09-01T14:17:21Z</time>
      </trkpt>
      <trkpt lat="45.1443" lon="2.88037">
        <ele>1174.399902</ele>
        <time>2011-09-01T14:17:38Z</time>
      </trkpt>
      <trkpt lat="45.14433" lon="2.88031">
        <ele>1174.210083</ele>
        <time>2011-09-01T14:17:40Z</time>
      </trkpt>
      <trkpt lat="45.14431" lon="2.8802">
        <ele>1175.122559</ele>
        <time>2011-09-01T14:17:44Z</time>
      </trkpt>
      <trkpt lat="45.14417" lon="2.87994">
        <ele>1179.536133</ele>
        <time>2011-09-01T14:17:53Z</time>
      </trkpt>
      <trkpt lat="45.14401" lon="2.87952">
        <ele>1181.063354</ele>
        <time>2011-09-01T14:18:06Z</time>
      </trkpt>
      <trkpt lat="45.1439" lon="2.87938">
        <ele>1182.146118</ele>
        <time>2011-09-01T14:18:12Z</time>
      </trkpt>
      <trkpt lat="45.14374" lon="2.87916">
        <ele>1183.60791</ele>
        <time>2011-09-01T14:18:21Z</time>
      </trkpt>
      <trkpt lat="45.14356" lon="2.87889">
        <ele>1184.54126</ele>
        <time>2011-09-01T14:18:32Z</time>
      </trkpt>
      <trkpt lat="45.14319" lon="2.87836">
        <ele>1186.296021</ele>
        <time>2011-09-01T14:18:53Z</time>
      </trkpt>
      <trkpt lat="45.14318" lon="2.87821">
        <ele>1186.446289</ele>
        <time>2011-09-01T14:18:57Z</time>
      </trkpt>
      <trkpt lat="45.14312" lon="2.87804">
        <ele>1186.908447</ele>
        <time>2011-09-01T14:19:02Z</time>
      </trkpt>
      <trkpt lat="45.14293" lon="2.8777">
        <ele>1188.619873</ele>
        <time>2011-09-01T14:19:15Z</time>
      </trkpt>
      <trkpt lat="45.1429" lon="2.87755">
        <ele>1189.020142</ele>
        <time>2011-09-01T14:19:19Z</time>
      </trkpt>
      <trkpt lat="45.1429" lon="2.87744">
        <ele>1189.200928</ele>
        <time>2011-09-01T14:19:22Z</time>
      </trkpt>
      <trkpt lat="45.14317" lon="2.87609">
        <ele>1190.8573</ele>
        <time>2011-09-01T14:20:02Z</time>
      </trkpt>
      <trkpt lat="45.1433" lon="2.87492">
        <ele>1196.290283</ele>
        <time>2011-09-01T14:20:35Z</time>
      </trkpt>
      <trkpt lat="45.14336" lon="2.87452">
        <ele>1198.067139</ele>
        <time>2011-09-01T14:20:47Z</time>
      </trkpt>
      <trkpt lat="45.14336" lon="2.87403">
        <ele>1200.919556</ele>
        <time>2011-09-01T14:21:01Z</time>
      </trkpt>
      <trkpt lat="45.14337" lon="2.87357">
        <ele>1203.10144</ele>
        <time>2011-09-01T14:21:14Z</time>
      </trkpt>
      <trkpt lat="45.14336" lon="2.87338">
        <ele>1203.849243</ele>
        <time>2011-09-01T14:21:19Z</time>
      </trkpt>
      <trkpt lat="45.14331" lon="2.87327">
        <ele>1204.751953</ele>
        <time>2011-09-01T14:21:23Z</time>
      </trkpt>
      <trkpt lat="45.14326" lon="2.8725">
        <ele>1207.46814</ele>
        <time>2011-09-01T14:21:45Z</time>
      </trkpt>
      <trkpt lat="45.14322" lon="2.87234">
        <ele>1208.055908</ele>
        <time>2011-09-01T14:21:49Z</time>
      </trkpt>
      <trkpt lat="45.14322" lon="2.87233">
        <ele>1208.107422</ele>
        <time>2011-09-01T14:21:50Z</time>
      </trkpt>
      <trkpt lat="45.14316" lon="2.87219">
        <ele>1209.08252</ele>
        <time>2011-09-01T14:21:54Z</time>
      </trkpt>
      <trkpt lat="45.14315" lon="2.87214">
        <ele>1209.424683</ele>
        <time>2011-09-01T14:21:56Z</time>
      </trkpt>
      <trkpt lat="45.14316" lon="2.87201">
        <ele>1210.229248</ele>
        <time>2011-09-01T14:21:59Z</time>
      </trkpt>
      <trkpt lat="45.14311" lon="2.87192">
        <ele>1210.891357</ele>
        <time>2011-09-01T14:22:03Z</time>
      </trkpt>
      <trkpt lat="45.14309" lon="2.87184">
        <ele>1211.44812</ele>
        <time>2011-09-01T14:22:05Z</time>
      </trkpt>
      <trkpt lat="45.1431" lon="2.87103">
        <ele>1215.478394</ele>
        <time>2011-09-01T14:22:28Z</time>
      </trkpt>
      <trkpt lat="45.1431" lon="2.8709">
        <ele>1215.878784</ele>
        <time>2011-09-01T14:22:32Z</time>
      </trkpt>
      <trkpt lat="45.14318" lon="2.87064">
        <ele>1216.524292</ele>
        <time>2011-09-01T14:22:40Z</time>
      </trkpt>
      <trkpt lat="45.1432" lon="2.8704">
        <ele>1217.266968</ele>
        <time>2011-09-01T14:22:47Z</time>
      </trkpt>
      <trkpt lat="45.14322" lon="2.87028">
        <ele>1217.729004</ele>
        <time>2011-09-01T14:22:50Z</time>
      </trkpt>
      <trkpt lat="45.14321" lon="2.87017">
        <ele>1218.271851</ele>
        <time>2011-09-01T14:22:53Z</time>
      </trkpt>
      <trkpt lat="45.14322" lon="2.87002">
        <ele>1218.890381</ele>
        <time>2011-09-01T14:22:57Z</time>
      </trkpt>
      <trkpt lat="45.14322" lon="2.86991">
        <ele>1219.380981</ele>
        <time>2011-09-01T14:23:00Z</time>
      </trkpt>
      <trkpt lat="45.1432" lon="2.86983">
        <ele>1219.740479</ele>
        <time>2011-09-01T14:23:03Z</time>
      </trkpt>
      <trkpt lat="45.14319" lon="2.86974">
        <ele>1220.152954</ele>
        <time>2011-09-01T14:23:05Z</time>
      </trkpt>
      <trkpt lat="45.1432" lon="2.86966">
        <ele>1220.529419</ele>
        <time>2011-09-01T14:23:08Z</time>
      </trkpt>
      <trkpt lat="45.14339" lon="2.86931">
        <ele>1222.0271</ele>
        <time>2011-09-01T14:23:20Z</time>
      </trkpt>
      <trkpt lat="45.14341" lon="2.86918">
        <ele>1222.565186</ele>
        <time>2011-09-01T14:23:24Z</time>
      </trkpt>
      <trkpt lat="45.14342" lon="2.86879">
        <ele>1223.297974</ele>
        <time>2011-09-01T14:23:35Z</time>
      </trkpt>
      <trkpt lat="45.14336" lon="2.8687">
        <ele>1223.566528</ele>
        <time>2011-09-01T14:23:38Z</time>
      </trkpt>
      <trkpt lat="45.14335" lon="2.86856">
        <ele>1223.82666</ele>
        <time>2011-09-01T14:23:42Z</time>
      </trkpt>
      <trkpt lat="45.14338" lon="2.86837">
        <ele>1224.060181</ele>
        <time>2011-09-01T14:23:48Z</time>
      </trkpt>
      <trkpt lat="45.14338" lon="2.8681">
        <ele>1224.475708</ele>
        <time>2011-09-01T14:23:55Z</time>
      </trkpt>
      <trkpt lat="45.14337" lon="2.86796">
        <ele>1224.717773</ele>
        <time>2011-09-01T14:23:59Z</time>
      </trkpt>
      <trkpt lat="45.14336" lon="2.86788">
        <ele>1224.852661</ele>
        <time>2011-09-01T14:24:02Z</time>
      </trkpt>
      <trkpt lat="45.14334" lon="2.86774">
        <ele>1224.738647</ele>
        <time>2011-09-01T14:24:06Z</time>
      </trkpt>
      <trkpt lat="45.14331" lon="2.86763">
        <ele>1224.623169</ele>
        <time>2011-09-01T14:24:09Z</time>
      </trkpt>
      <trkpt lat="45.14334" lon="2.86746">
        <ele>1224.322632</ele>
        <time>2011-09-01T14:24:14Z</time>
      </trkpt>
      <trkpt lat="45.14338" lon="2.86741">
        <ele>1224.238281</ele>
        <time>2011-09-01T14:24:16Z</time>
      </trkpt>
      <trkpt lat="45.1435" lon="2.86727">
        <ele>1224.035034</ele>
        <time>2011-09-01T14:24:22Z</time>
      </trkpt>
      <trkpt lat="45.14345" lon="2.86705">
        <ele>1223.910645</ele>
        <time>2011-09-01T14:24:29Z</time>
      </trkpt>
      <trkpt lat="45.14333" lon="2.86681">
        <ele>1223.980957</ele>
        <time>2011-09-01T14:24:37Z</time>
      </trkpt>
      <trkpt lat="45.14323" lon="2.86671">
        <ele>1224</ele>
        <time>2011-09-01T14:24:42Z</time>
      </trkpt>
      <trkpt lat="45.14318" lon="2.86653">
        <ele>1224.11084</ele>
        <time>2011-09-01T14:24:48Z</time>
      </trkpt>
      <trkpt lat="45.14308" lon="2.86625">
        <ele>1224.549316</ele>
        <time>2011-09-01T14:24:57Z</time>
      </trkpt>
      <trkpt lat="45.14302" lon="2.86576">
        <ele>1225.311768</ele>
        <time>2011-09-01T14:25:10Z</time>
      </trkpt>
      <trkpt lat="45.14297" lon="2.86514">
        <ele>1226.293335</ele>
        <time>2011-09-01T14:25:28Z</time>
      </trkpt>
      <trkpt lat="45.14297" lon="2.86412">
        <ele>1227.519409</ele>
        <time>2011-09-01T14:25:57Z</time>
      </trkpt>
      <trkpt lat="45.14293" lon="2.86383">
        <ele>1227.10022</ele>
        <time>2011-09-01T14:26:05Z</time>
      </trkpt>
      <trkpt lat="45.14287" lon="2.86352">
        <ele>1226.393066</ele>
        <time>2011-09-01T14:26:14Z</time>
      </trkpt>
      <trkpt lat="45.14275" lon="2.86323">
        <ele>1226.246582</ele>
        <time>2011-09-01T14:26:24Z</time>
      </trkpt>
      <trkpt lat="45.14264" lon="2.86303">
        <ele>1226.401611</ele>
        <time>2011-09-01T14:26:31Z</time>
      </trkpt>
      <trkpt lat="45.1425" lon="2.86284">
        <ele>1226.73938</ele>
        <time>2011-09-01T14:26:39Z</time>
      </trkpt>
      <trkpt lat="45.14204" lon="2.86254">
        <ele>1228.797607</ele>
        <time>2011-09-01T14:26:59Z</time>
      </trkpt>
      <trkpt lat="45.14187" lon="2.86232">
        <ele>1229.32666</ele>
        <time>2011-09-01T14:27:08Z</time>
      </trkpt>
      <trkpt lat="45.14155" lon="2.86167">
        <ele>1228.737427</ele>
        <time>2011-09-01T14:27:31Z</time>
      </trkpt>
      <trkpt lat="45.14109" lon="2.86098">
        <ele>1229.367188</ele>
        <time>2011-09-01T14:27:57Z</time>
      </trkpt>
      <trkpt lat="45.14054" lon="2.86031">
        <ele>1235.020508</ele>
        <time>2011-09-01T14:28:26Z</time>
      </trkpt>
      <trkpt lat="45.14047" lon="2.86017">
        <ele>1236.352295</ele>
        <time>2011-09-01T14:28:31Z</time>
      </trkpt>
      <trkpt lat="45.14045" lon="2.86004">
        <ele>1236.658325</ele>
        <time>2011-09-01T14:28:35Z</time>
      </trkpt>
      <trkpt lat="45.14074" lon="2.85862">
        <ele>1229.965942</ele>
        <time>2011-09-01T14:29:17Z</time>
      </trkpt>
      <trkpt lat="45.14092" lon="2.85779">
        <ele>1226.067261</ele>
        <time>2011-09-01T14:29:41Z</time>
      </trkpt>
      <trkpt lat="45.14118" lon="2.85729">
        <ele>1220.849365</ele>
        <time>2011-09-01T14:29:59Z</time>
      </trkpt>
      <trkpt lat="45.1412" lon="2.85715">
        <ele>1220.614136</ele>
        <time>2011-09-01T14:30:03Z</time>
      </trkpt>
      <trkpt lat="45.14131" lon="2.85654">
        <ele>1219.258057</ele>
        <time>2011-09-01T14:30:21Z</time>
      </trkpt>
      <trkpt lat="45.14136" lon="2.85637">
        <ele>1218.688599</ele>
        <time>2011-09-01T14:30:26Z</time>
      </trkpt>
      <trkpt lat="45.14146" lon="2.85609">
        <ele>1217.810913</ele>
        <time>2011-09-01T14:30:35Z</time>
      </trkpt>
      <trkpt lat="45.1415" lon="2.85564">
        <ele>1217.773071</ele>
        <time>2011-09-01T14:30:47Z</time>
      </trkpt>
      <trkpt lat="45.1415" lon="2.85562">
        <ele>1217.724365</ele>
        <time>2011-09-01T14:30:48Z</time>
      </trkpt>
      <trkpt lat="45.1415" lon="2.85557">
        <ele>1217.725952</ele>
        <time>2011-09-01T14:30:49Z</time>
      </trkpt>
      <trkpt lat="45.1415" lon="2.85551">
        <ele>1217.727539</ele>
        <time>2011-09-01T14:30:51Z</time>
      </trkpt>
      <trkpt lat="45.1415" lon="2.85546">
        <ele>1217.729126</ele>
        <time>2011-09-01T14:30:53Z</time>
      </trkpt>
      <trkpt lat="45.1415" lon="2.85542">
        <ele>1217.730103</ele>
        <time>2011-09-01T14:30:54Z</time>
      </trkpt>
      <trkpt lat="45.1415" lon="2.8554">
        <ele>1217.730835</ele>
        <time>2011-09-01T14:30:54Z</time>
      </trkpt>
      <trkpt lat="45.1415" lon="2.85535">
        <ele>1217.732178</ele>
        <time>2011-09-01T14:30:56Z</time>
      </trkpt>
      <trkpt lat="45.1415" lon="2.85531">
        <ele>1217.733276</ele>
        <time>2011-09-01T14:30:57Z</time>
      </trkpt>
      <trkpt lat="45.1415" lon="2.85529">
        <ele>1217.734009</ele>
        <time>2011-09-01T14:30:57Z</time>
      </trkpt>
      <trkpt lat="45.1415" lon="2.85526">
        <ele>1217.734863</ele>
        <time>2011-09-01T14:30:58Z</time>
      </trkpt>
      <trkpt lat="45.1415" lon="2.85523">
        <ele>1217.735596</ele>
        <time>2011-09-01T14:30:59Z</time>
      </trkpt>
      <trkpt lat="45.1415" lon="2.85521">
        <ele>1217.736328</ele>
        <time>2011-09-01T14:31:00Z</time>
      </trkpt>
      <trkpt lat="45.1415" lon="2.85518">
        <ele>1217.786255</ele>
        <time>2011-09-01T14:31:00Z</time>
      </trkpt>
      <trkpt lat="45.14149" lon="2.85517">
        <ele>1217.835938</ele>
        <time>2011-09-01T14:31:01Z</time>
      </trkpt>
      <trkpt lat="45.14149" lon="2.85513">
        <ele>1217.866577</ele>
        <time>2011-09-01T14:31:02Z</time>
      </trkpt>
      <trkpt lat="45.14148" lon="2.85509">
        <ele>1217.943726</ele>
        <time>2011-09-01T14:31:03Z</time>
      </trkpt>
      <trkpt lat="45.14146" lon="2.85506">
        <ele>1218.016602</ele>
        <time>2011-09-01T14:31:04Z</time>
      </trkpt>
      <trkpt lat="45.14145" lon="2.85503">
        <ele>1218.110596</ele>
        <time>2011-09-01T14:31:05Z</time>
      </trkpt>
      <trkpt lat="45.14144" lon="2.855">
        <ele>1218.202515</ele>
        <time>2011-09-01T14:31:06Z</time>
      </trkpt>
      <trkpt lat="45.14143" lon="2.85498">
        <ele>1218.244995</ele>
        <time>2011-09-01T14:31:07Z</time>
      </trkpt>
      <trkpt lat="45.14142" lon="2.85495">
        <ele>1218.285889</ele>
        <time>2011-09-01T14:31:08Z</time>
      </trkpt>
      <trkpt lat="45.14141" lon="2.85492">
        <ele>1218.311768</ele>
        <time>2011-09-01T14:31:09Z</time>
      </trkpt>
      <trkpt lat="45.14141" lon="2.8549">
        <ele>1218.303711</ele>
        <time>2011-09-01T14:31:09Z</time>
      </trkpt>
      <trkpt lat="45.1414" lon="2.85488">
        <ele>1218.353882</ele>
        <time>2011-09-01T14:31:10Z</time>
      </trkpt>
      <trkpt lat="45.14139" lon="2.85485">
        <ele>1218.3302</ele>
        <time>2011-09-01T14:31:11Z</time>
      </trkpt>
      <trkpt lat="45.14138" lon="2.85482">
        <ele>1218.349854</ele>
        <time>2011-09-01T14:31:12Z</time>
      </trkpt>
      <trkpt lat="45.14138" lon="2.85479">
        <ele>1218.337769</ele>
        <time>2011-09-01T14:31:13Z</time>
      </trkpt>
      <trkpt lat="45.14137" lon="2.85477">
        <ele>1218.368652</ele>
        <time>2011-09-01T14:31:13Z</time>
      </trkpt>
      <trkpt lat="45.14137" lon="2.85473">
        <ele>1218.34021</ele>
        <time>2011-09-01T14:31:14Z</time>
      </trkpt>
      <trkpt lat="45.14136" lon="2.8547">
        <ele>1218.310669</ele>
        <time>2011-09-01T14:31:15Z</time>
      </trkpt>
      <trkpt lat="45.14135" lon="2.85467">
        <ele>1218.32251</ele>
        <time>2011-09-01T14:31:16Z</time>
      </trkpt>
      <trkpt lat="45.14135" lon="2.85465">
        <ele>1218.347412</ele>
        <time>2011-09-01T14:31:17Z</time>
      </trkpt>
      <trkpt lat="45.14134" lon="2.85461">
        <ele>1218.313965</ele>
        <time>2011-09-01T14:31:18Z</time>
      </trkpt>
      <trkpt lat="45.14133" lon="2.85459">
        <ele>1218.377075</ele>
        <time>2011-09-01T14:31:19Z</time>
      </trkpt>
      <trkpt lat="45.14132" lon="2.85456">
        <ele>1218.356323</ele>
        <time>2011-09-01T14:31:19Z</time>
      </trkpt>
      <trkpt lat="45.14131" lon="2.85455">
        <ele>1218.390747</ele>
        <time>2011-09-01T14:31:20Z</time>
      </trkpt>
      <trkpt lat="45.14131" lon="2.85451">
        <ele>1218.376465</ele>
        <time>2011-09-01T14:31:21Z</time>
      </trkpt>
      <trkpt lat="45.1413" lon="2.85449">
        <ele>1218.370361</ele>
        <time>2011-09-01T14:31:22Z</time>
      </trkpt>
      <trkpt lat="45.14128" lon="2.85445">
        <ele>1218.331299</ele>
        <time>2011-09-01T14:31:23Z</time>
      </trkpt>
      <trkpt lat="45.14127" lon="2.85443">
        <ele>1218.274902</ele>
        <time>2011-09-01T14:31:24Z</time>
      </trkpt>
      <trkpt lat="45.14127" lon="2.8544">
        <ele>1218.178467</ele>
        <time>2011-09-01T14:31:25Z</time>
      </trkpt>
      <trkpt lat="45.14126" lon="2.85437">
        <ele>1218.115845</ele>
        <time>2011-09-01T14:31:25Z</time>
      </trkpt>
      <trkpt lat="45.14125" lon="2.85435">
        <ele>1218.013794</ele>
        <time>2011-09-01T14:31:26Z</time>
      </trkpt>
      <trkpt lat="45.14124" lon="2.85431">
        <ele>1217.908813</ele>
        <time>2011-09-01T14:31:27Z</time>
      </trkpt>
      <trkpt lat="45.14123" lon="2.85429">
        <ele>1217.868286</ele>
        <time>2011-09-01T14:31:28Z</time>
      </trkpt>
      <trkpt lat="45.14122" lon="2.85425">
        <ele>1217.75415</ele>
        <time>2011-09-01T14:31:29Z</time>
      </trkpt>
      <trkpt lat="45.14121" lon="2.85423">
        <ele>1217.709229</ele>
        <time>2011-09-01T14:31:30Z</time>
      </trkpt>
      <trkpt lat="45.14119" lon="2.85421">
        <ele>1217.687134</ele>
        <time>2011-09-01T14:31:31Z</time>
      </trkpt>
      <trkpt lat="45.14117" lon="2.85419">
        <ele>1217.697144</ele>
        <time>2011-09-01T14:31:32Z</time>
      </trkpt>
      <trkpt lat="45.14116" lon="2.85417">
        <ele>1217.672363</ele>
        <time>2011-09-01T14:31:33Z</time>
      </trkpt>
      <trkpt lat="45.14115" lon="2.85416">
        <ele>1217.693115</ele>
        <time>2011-09-01T14:31:33Z</time>
      </trkpt>
      <trkpt lat="45.14102" lon="2.85383">
        <ele>1216.529053</ele>
        <time>2011-09-01T14:31:44Z</time>
      </trkpt>
      <trkpt lat="45.14065" lon="2.85334">
        <ele>1214.769043</ele>
        <time>2011-09-01T14:32:04Z</time>
      </trkpt>
      <trkpt lat="45.14038" lon="2.85323">
        <ele>1212.713379</ele>
        <time>2011-09-01T14:32:15Z</time>
      </trkpt>
      <trkpt lat="45.1402" lon="2.85328">
        <ele>1212.56604</ele>
        <time>2011-09-01T14:32:23Z</time>
      </trkpt>
      <trkpt lat="45.13992" lon="2.85336">
        <ele>1211.650146</ele>
        <time>2011-09-01T14:32:34Z</time>
      </trkpt>
      <trkpt lat="45.13974" lon="2.85337">
        <ele>1210.391968</ele>
        <time>2011-09-01T14:32:41Z</time>
      </trkpt>
      <trkpt lat="45.13966" lon="2.85345">
        <ele>1210.113159</ele>
        <time>2011-09-01T14:32:45Z</time>
      </trkpt>
      <trkpt lat="45.13962" lon="2.85345">
        <ele>1209.463867</ele>
        <time>2011-09-01T14:32:47Z</time>
      </trkpt>
      <trkpt lat="45.1396" lon="2.85344">
        <ele>1209.089844</ele>
        <time>2011-09-01T14:32:47Z</time>
      </trkpt>
      <trkpt lat="45.13959" lon="2.85341">
        <ele>1208.531616</ele>
        <time>2011-09-01T14:32:48Z</time>
      </trkpt>
      <trkpt lat="45.13958" lon="2.85339">
        <ele>1208.0448</ele>
        <time>2011-09-01T14:32:49Z</time>
      </trkpt>
      <trkpt lat="45.13957" lon="2.85335">
        <ele>1207.471069</ele>
        <time>2011-09-01T14:32:50Z</time>
      </trkpt>
      <trkpt lat="45.13957" lon="2.85332">
        <ele>1207.04187</ele>
        <time>2011-09-01T14:32:51Z</time>
      </trkpt>
      <trkpt lat="45.13994" lon="2.853">
        <ele>1208.229858</ele>
        <time>2011-09-01T14:33:09Z</time>
      </trkpt>
      <trkpt lat="45.13996" lon="2.85278">
        <ele>1206.612305</ele>
        <time>2011-09-01T14:33:15Z</time>
      </trkpt>
      <trkpt lat="45.13998" lon="2.85243">
        <ele>1203.995728</ele>
        <time>2011-09-01T14:33:25Z</time>
      </trkpt>
      <trkpt lat="45.13998" lon="2.85219">
        <ele>1202.130737</ele>
        <time>2011-09-01T14:33:31Z</time>
      </trkpt>
      <trkpt lat="45.13995" lon="2.85214">
        <ele>1201.273926</ele>
        <time>2011-09-01T14:33:34Z</time>
      </trkpt>
      <trkpt lat="45.13992" lon="2.85213">
        <ele>1200.949463</ele>
        <time>2011-09-01T14:33:35Z</time>
      </trkpt>
      <trkpt lat="45.1399" lon="2.85213">
        <ele>1200.731934</ele>
        <time>2011-09-01T14:33:35Z</time>
      </trkpt>
      <trkpt lat="45.13988" lon="2.85212">
        <ele>1200.459595</ele>
        <time>2011-09-01T14:33:36Z</time>
      </trkpt>
      <trkpt lat="45.13986" lon="2.85212">
        <ele>1200.241943</ele>
        <time>2011-09-01T14:33:37Z</time>
      </trkpt>
      <trkpt lat="45.13984" lon="2.85213">
        <ele>1200.078003</ele>
        <time>2011-09-01T14:33:38Z</time>
      </trkpt>
      <trkpt lat="45.13974" lon="2.85227">
        <ele>1199.700317</ele>
        <time>2011-09-01T14:33:44Z</time>
      </trkpt>
      <trkpt lat="45.13953" lon="2.85237">
        <ele>1196.894043</ele>
        <time>2011-09-01T14:33:52Z</time>
      </trkpt>
      <trkpt lat="45.13915" lon="2.8525">
        <ele>1191.035889</ele>
        <time>2011-09-01T14:34:08Z</time>
      </trkpt>
      <trkpt lat="45.13849" lon="2.85297">
        <ele>1182.758179</ele>
        <time>2011-09-01T14:34:37Z</time>
      </trkpt>
      <trkpt lat="45.13849" lon="2.85299">
        <ele>1182.702881</ele>
        <time>2011-09-01T14:34:38Z</time>
      </trkpt>
      <trkpt lat="45.13833" lon="2.85309">
        <ele>1180.271484</ele>
        <time>2011-09-01T14:34:45Z</time>
      </trkpt>
      <trkpt lat="45.13826" lon="2.85304">
        <ele>1178.101196</ele>
        <time>2011-09-01T14:34:48Z</time>
      </trkpt>
      <trkpt lat="45.13825" lon="2.85302">
        <ele>1177.608765</ele>
        <time>2011-09-01T14:34:49Z</time>
      </trkpt>
      <trkpt lat="45.13824" lon="2.85299">
        <ele>1176.9198</ele>
        <time>2011-09-01T14:34:50Z</time>
      </trkpt>
      <trkpt lat="45.13823" lon="2.85295">
        <ele>1176.275757</ele>
        <time>2011-09-01T14:34:51Z</time>
      </trkpt>
      <trkpt lat="45.13823" lon="2.85294">
        <ele>1176.117432</ele>
        <time>2011-09-01T14:34:51Z</time>
      </trkpt>
      <trkpt lat="45.13804" lon="2.8524">
        <ele>1165.797974</ele>
        <time>2011-09-01T14:35:08Z</time>
      </trkpt>
      <trkpt lat="45.13768" lon="2.85172">
        <ele>1152.271973</ele>
        <time>2011-09-01T14:35:32Z</time>
      </trkpt>
      <trkpt lat="45.13763" lon="2.85157">
        <ele>1150.680664</ele>
        <time>2011-09-01T14:35:37Z</time>
      </trkpt>
      <trkpt lat="45.13761" lon="2.85126">
        <ele>1149.056641</ele>
        <time>2011-09-01T14:35:45Z</time>
      </trkpt>
      <trkpt lat="45.13756" lon="2.85065">
        <ele>1147.161499</ele>
        <time>2011-09-01T14:36:03Z</time>
      </trkpt>
      <trkpt lat="45.13755" lon="2.85051">
        <ele>1147.045288</ele>
        <time>2011-09-01T14:36:07Z</time>
      </trkpt>
      <trkpt lat="45.13748" lon="2.85041">
        <ele>1146.783325</ele>
        <time>2011-09-01T14:36:11Z</time>
      </trkpt>
      <trkpt lat="45.13661" lon="2.85014">
        <ele>1151.485229</ele>
        <time>2011-09-01T14:36:46Z</time>
      </trkpt>
      <trkpt lat="45.1365" lon="2.85016">
        <ele>1153.511475</ele>
        <time>2011-09-01T14:36:51Z</time>
      </trkpt>
      <trkpt lat="45.13619" lon="2.85027">
        <ele>1159.203735</ele>
        <time>2011-09-01T14:37:04Z</time>
      </trkpt>
      <trkpt lat="45.13612" lon="2.85038">
        <ele>1159.389404</ele>
        <time>2011-09-01T14:37:08Z</time>
      </trkpt>
      <trkpt lat="45.13605" lon="2.8504">
        <ele>1159.873047</ele>
        <time>2011-09-01T14:37:11Z</time>
      </trkpt>
      <trkpt lat="45.13545" lon="2.85021">
        <ele>1159.241455</ele>
        <time>2011-09-01T14:37:35Z</time>
      </trkpt>
      <trkpt lat="45.13532" lon="2.85011">
        <ele>1158.480469</ele>
        <time>2011-09-01T14:37:41Z</time>
      </trkpt>
      <trkpt lat="45.13521" lon="2.84998">
        <ele>1157.869873</ele>
        <time>2011-09-01T14:37:47Z</time>
      </trkpt>
      <trkpt lat="45.13512" lon="2.85002">
        <ele>1155.72168</ele>
        <time>2011-09-01T14:37:51Z</time>
      </trkpt>
      <trkpt lat="45.13503" lon="2.85009">
        <ele>1153.569824</ele>
        <time>2011-09-01T14:37:55Z</time>
      </trkpt>
      <trkpt lat="45.13502" lon="2.85011">
        <ele>1153.128296</ele>
        <time>2011-09-01T14:37:56Z</time>
      </trkpt>
      <trkpt lat="45.135" lon="2.85014">
        <ele>1152.628662</ele>
        <time>2011-09-01T14:37:57Z</time>
      </trkpt>
      <trkpt lat="45.13499" lon="2.85017">
        <ele>1152.218872</ele>
        <time>2011-09-01T14:37:58Z</time>
      </trkpt>
      <trkpt lat="45.13498" lon="2.85019">
        <ele>1151.956421</ele>
        <time>2011-09-01T14:37:58Z</time>
      </trkpt>
      <trkpt lat="45.13497" lon="2.85021">
        <ele>1151.545532</ele>
        <time>2011-09-01T14:37:59Z</time>
      </trkpt>
      <trkpt lat="45.13497" lon="2.85025">
        <ele>1151.25769</ele>
        <time>2011-09-01T14:38:00Z</time>
      </trkpt>
      <trkpt lat="45.13497" lon="2.85028">
        <ele>1151.028931</ele>
        <time>2011-09-01T14:38:01Z</time>
      </trkpt>
      <trkpt lat="45.13497" lon="2.8503">
        <ele>1150.71167</ele>
        <time>2011-09-01T14:38:02Z</time>
      </trkpt>
      <trkpt lat="45.13495" lon="2.85033">
        <ele>1150.302979</ele>
        <time>2011-09-01T14:38:03Z</time>
      </trkpt>
      <trkpt lat="45.13495" lon="2.85036">
        <ele>1149.985229</ele>
        <time>2011-09-01T14:38:03Z</time>
      </trkpt>
      <trkpt lat="45.13493" lon="2.8504">
        <ele>1149.336914</ele>
        <time>2011-09-01T14:38:05Z</time>
      </trkpt>
      <trkpt lat="45.13492" lon="2.85042">
        <ele>1148.927002</ele>
        <time>2011-09-01T14:38:06Z</time>
      </trkpt>
      <trkpt lat="45.13491" lon="2.85044">
        <ele>1148.630615</ele>
        <time>2011-09-01T14:38:06Z</time>
      </trkpt>
      <trkpt lat="45.13489" lon="2.85047">
        <ele>1148.037354</ele>
        <time>2011-09-01T14:38:07Z</time>
      </trkpt>
      <trkpt lat="45.13486" lon="2.85047">
        <ele>1147.614868</ele>
        <time>2011-09-01T14:38:08Z</time>
      </trkpt>
      <trkpt lat="45.13484" lon="2.85049">
        <ele>1147.004272</ele>
        <time>2011-09-01T14:38:09Z</time>
      </trkpt>
      <trkpt lat="45.13481" lon="2.85051">
        <ele>1146.524658</ele>
        <time>2011-09-01T14:38:10Z</time>
      </trkpt>
      <trkpt lat="45.1348" lon="2.85051">
        <ele>1146.304443</ele>
        <time>2011-09-01T14:38:11Z</time>
      </trkpt>
      <trkpt lat="45.13477" lon="2.85053">
        <ele>1145.775391</ele>
        <time>2011-09-01T14:38:12Z</time>
      </trkpt>
      <trkpt lat="45.13475" lon="2.85053">
        <ele>1145.431152</ele>
        <time>2011-09-01T14:38:13Z</time>
      </trkpt>
      <trkpt lat="45.13472" lon="2.85054">
        <ele>1145.016113</ele>
        <time>2011-09-01T14:38:14Z</time>
      </trkpt>
      <trkpt lat="45.13471" lon="2.85054">
        <ele>1144.798584</ele>
        <time>2011-09-01T14:38:15Z</time>
      </trkpt>
      <trkpt lat="45.13395" lon="2.85043">
        <ele>1138.625732</ele>
        <time>2011-09-01T14:38:45Z</time>
      </trkpt>
      <trkpt lat="45.1335" lon="2.85056">
        <ele>1139.08252</ele>
        <time>2011-09-01T14:39:04Z</time>
      </trkpt>
      <trkpt lat="45.13273" lon="2.85091">
        <ele>1139.006958</ele>
        <time>2011-09-01T14:39:36Z</time>
      </trkpt>
      <trkpt lat="45.13237" lon="2.85102">
        <ele>1140.849121</ele>
        <time>2011-09-01T14:39:51Z</time>
      </trkpt>
      <trkpt lat="45.13235" lon="2.85102">
        <ele>1140.971436</ele>
        <time>2011-09-01T14:39:51Z</time>
      </trkpt>
      <trkpt lat="45.13199" lon="2.85108">
        <ele>1143.995239</ele>
        <time>2011-09-01T14:40:06Z</time>
      </trkpt>
      <trkpt lat="45.13187" lon="2.85107">
        <ele>1145.258057</ele>
        <time>2011-09-01T14:40:11Z</time>
      </trkpt>
      <trkpt lat="45.13154" lon="2.85136">
        <ele>1148.376343</ele>
        <time>2011-09-01T14:40:27Z</time>
      </trkpt>
      <trkpt lat="45.13093" lon="2.8523">
        <ele>1153.535645</ele>
        <time>2011-09-01T14:41:03Z</time>
      </trkpt>
      <trkpt lat="45.12935" lon="2.85408">
        <ele>1156.177002</ele>
        <time>2011-09-01T14:42:24Z</time>
      </trkpt>
      <trkpt lat="45.12807" lon="2.85518">
        <ele>1156.974731</ele>
        <time>2011-09-01T14:43:23Z</time>
      </trkpt>
      <trkpt lat="45.12732" lon="2.8558">
        <ele>1150.255249</ele>
        <time>2011-09-01T14:43:58Z</time>
      </trkpt>
      <trkpt lat="45.12724" lon="2.85598">
        <ele>1149.726563</ele>
        <time>2011-09-01T14:44:04Z</time>
      </trkpt>
      <trkpt lat="45.12716" lon="2.85623">
        <ele>1149.450317</ele>
        <time>2011-09-01T14:44:12Z</time>
      </trkpt>
      <trkpt lat="45.12688" lon="2.85662">
        <ele>1143.658569</ele>
        <time>2011-09-01T14:44:28Z</time>
      </trkpt>
      <trkpt lat="45.12653" lon="2.85739">
        <ele>1136.653687</ele>
        <time>2011-09-01T14:44:54Z</time>
      </trkpt>
      <trkpt lat="45.12614" lon="2.85785">
        <ele>1130.424683</ele>
        <time>2011-09-01T14:45:14Z</time>
      </trkpt>
      <trkpt lat="45.12566" lon="2.85795">
        <ele>1126.560791</ele>
        <time>2011-09-01T14:45:33Z</time>
      </trkpt>
      <trkpt lat="45.12533" lon="2.85786">
        <ele>1124.928589</ele>
        <time>2011-09-01T14:45:46Z</time>
      </trkpt>
      <trkpt lat="45.12532" lon="2.85787">
        <ele>1124.894043</ele>
        <time>2011-09-01T14:45:47Z</time>
      </trkpt>
      <trkpt lat="45.12511" lon="2.85786">
        <ele>1124.442993</ele>
        <time>2011-09-01T14:45:55Z</time>
      </trkpt>
      <trkpt lat="45.12504" lon="2.85778">
        <ele>1124.279785</ele>
        <time>2011-09-01T14:45:59Z</time>
      </trkpt>
      <trkpt lat="45.12478" lon="2.85715">
        <ele>1122.627563</ele>
        <time>2011-09-01T14:46:19Z</time>
      </trkpt>
      <trkpt lat="45.12478" lon="2.85701">
        <ele>1122.447876</ele>
        <time>2011-09-01T14:46:24Z</time>
      </trkpt>
      <trkpt lat="45.12651" lon="2.85246">
        <ele>1122.942017</ele>
        <time>2011-09-01T14:48:49Z</time>
      </trkpt>
      <trkpt lat="45.12657" lon="2.85193">
        <ele>1118.473389</ele>
        <time>2011-09-01T14:49:05Z</time>
      </trkpt>
      <trkpt lat="45.12663" lon="2.85179">
        <ele>1117.756348</ele>
        <time>2011-09-01T14:49:09Z</time>
      </trkpt>
      <trkpt lat="45.12696" lon="2.85063">
        <ele>1115.627441</ele>
        <time>2011-09-01T14:49:45Z</time>
      </trkpt>
      <trkpt lat="45.12701" lon="2.85048">
        <ele>1116.012939</ele>
        <time>2011-09-01T14:49:49Z</time>
      </trkpt>
      <trkpt lat="45.1268" lon="2.8488">
        <ele>1108.085205</ele>
        <time>2011-09-01T14:50:38Z</time>
      </trkpt>
      <trkpt lat="45.12679" lon="2.8486">
        <ele>1106.130493</ele>
        <time>2011-09-01T14:50:43Z</time>
      </trkpt>
      <trkpt lat="45.12682" lon="2.8485">
        <ele>1105.670532</ele>
        <time>2011-09-01T14:50:46Z</time>
      </trkpt>
      <trkpt lat="45.12758" lon="2.84742">
        <ele>1108.445313</ele>
        <time>2011-09-01T14:51:29Z</time>
      </trkpt>
      <trkpt lat="45.12764" lon="2.84731">
        <ele>1107.866333</ele>
        <time>2011-09-01T14:51:33Z</time>
      </trkpt>
      <trkpt lat="45.12766" lon="2.84713">
        <ele>1104.505615</ele>
        <time>2011-09-01T14:51:39Z</time>
      </trkpt>
      <trkpt lat="45.12771" lon="2.84694">
        <ele>1102.091919</ele>
        <time>2011-09-01T14:51:44Z</time>
      </trkpt>
      <trkpt lat="45.12999" lon="2.84436">
        <ele>1121.07373</ele>
        <time>2011-09-01T14:53:41Z</time>
      </trkpt>
      <trkpt lat="45.13068" lon="2.84292">
        <ele>1119.68103</ele>
        <time>2011-09-01T14:54:30Z</time>
      </trkpt>
      <trkpt lat="45.1306" lon="2.84286">
        <ele>1116.379395</ele>
        <time>2011-09-01T14:54:34Z</time>
      </trkpt>
      <trkpt lat="45.13062" lon="2.84276">
        <ele>1115.573486</ele>
        <time>2011-09-01T14:54:37Z</time>
      </trkpt>
      <trkpt lat="45.13062" lon="2.84263">
        <ele>1113.883057</ele>
        <time>2011-09-01T14:54:40Z</time>
      </trkpt>
      <trkpt lat="45.13054" lon="2.8425">
        <ele>1109.731934</ele>
        <time>2011-09-01T14:54:45Z</time>
      </trkpt>
      <trkpt lat="45.13038" lon="2.84236">
        <ele>1103.209229</ele>
        <time>2011-09-01T14:54:53Z</time>
      </trkpt>
      <trkpt lat="45.13029" lon="2.84223">
        <ele>1099.8396</ele>
        <time>2011-09-01T14:54:58Z</time>
      </trkpt>
      <trkpt lat="45.13028" lon="2.84213">
        <ele>1098.796143</ele>
        <time>2011-09-01T14:55:01Z</time>
      </trkpt>
      <trkpt lat="45.13042" lon="2.84149">
        <ele>1098.529663</ele>
        <time>2011-09-01T14:55:20Z</time>
      </trkpt>
      <trkpt lat="45.13046" lon="2.84123">
        <ele>1099.004517</ele>
        <time>2011-09-01T14:55:27Z</time>
      </trkpt>
      <trkpt lat="45.13043" lon="2.84085">
        <ele>1098.202759</ele>
        <time>2011-09-01T14:55:38Z</time>
      </trkpt>
      <trkpt lat="45.13035" lon="2.84033">
        <ele>1097.630005</ele>
        <time>2011-09-01T14:55:53Z</time>
      </trkpt>
      <trkpt lat="45.1303" lon="2.83882">
        <ele>1100.903198</ele>
        <time>2011-09-01T14:56:36Z</time>
      </trkpt>
      <trkpt lat="45.13002" lon="2.8377">
        <ele>1099.80481</ele>
        <time>2011-09-01T14:57:09Z</time>
      </trkpt>
      <trkpt lat="45.1299" lon="2.83752">
        <ele>1099.21167</ele>
        <time>2011-09-01T14:57:16Z</time>
      </trkpt>
      <trkpt lat="45.1298" lon="2.83738">
        <ele>1098.983643</ele>
        <time>2011-09-01T14:57:22Z</time>
      </trkpt>
      <trkpt lat="45.12968" lon="2.83731">
        <ele>1098.158447</ele>
        <time>2011-09-01T14:57:27Z</time>
      </trkpt>
      <trkpt lat="45.12941" lon="2.83757">
        <ele>1095.209961</ele>
        <time>2011-09-01T14:57:40Z</time>
      </trkpt>
      <trkpt lat="45.12855" lon="2.83789">
        <ele>1100.838623</ele>
        <time>2011-09-01T14:58:16Z</time>
      </trkpt>
      <trkpt lat="45.12781" lon="2.83817">
        <ele>1112.739258</ele>
        <time>2011-09-01T14:58:47Z</time>
      </trkpt>
      <trkpt lat="45.1271" lon="2.83825">
        <ele>1127.581787</ele>
        <time>2011-09-01T14:59:15Z</time>
      </trkpt>
      <trkpt lat="45.12676" lon="2.83835">
        <ele>1134.452148</ele>
        <time>2011-09-01T14:59:29Z</time>
      </trkpt>
      <trkpt lat="45.12593" lon="2.83889">
        <ele>1147.379395</ele>
        <time>2011-09-01T15:00:05Z</time>
      </trkpt>
      <trkpt lat="45.12555" lon="2.83911">
        <ele>1153.09082</ele>
        <time>2011-09-01T15:00:22Z</time>
      </trkpt>
      <trkpt lat="45.12535" lon="2.83918">
        <ele>1155.684326</ele>
        <time>2011-09-01T15:00:30Z</time>
      </trkpt>
      <trkpt lat="45.12528" lon="2.83918">
        <ele>1156.837646</ele>
        <time>2011-09-01T15:00:33Z</time>
      </trkpt>
      <trkpt lat="45.1252" lon="2.83914">
        <ele>1158.437866</ele>
        <time>2011-09-01T15:00:36Z</time>
      </trkpt>
      <trkpt lat="45.12516" lon="2.83907">
        <ele>1159.81543</ele>
        <time>2011-09-01T15:00:39Z</time>
      </trkpt>
      <trkpt lat="45.12436" lon="2.83911">
        <ele>1166.816772</ele>
        <time>2011-09-01T15:01:11Z</time>
      </trkpt>
      <trkpt lat="45.1242" lon="2.83897">
        <ele>1167.827271</ele>
        <time>2011-09-01T15:01:18Z</time>
      </trkpt>
      <trkpt lat="45.12409" lon="2.83886">
        <ele>1168.378662</ele>
        <time>2011-09-01T15:01:24Z</time>
      </trkpt>
      <trkpt lat="45.12332" lon="2.83771">
        <ele>1166.776001</ele>
        <time>2011-09-01T15:02:09Z</time>
      </trkpt>
      <trkpt lat="45.12309" lon="2.83752">
        <ele>1164.77478</ele>
        <time>2011-09-01T15:02:19Z</time>
      </trkpt>
      <trkpt lat="45.12299" lon="2.83751">
        <ele>1163.742432</ele>
        <time>2011-09-01T15:02:24Z</time>
      </trkpt>
      <trkpt lat="45.12243" lon="2.83781">
        <ele>1157.07666</ele>
        <time>2011-09-01T15:02:48Z</time>
      </trkpt>
      <trkpt lat="45.12222" lon="2.83781">
        <ele>1154.059204</ele>
        <time>2011-09-01T15:02:56Z</time>
      </trkpt>
      <trkpt lat="45.12198" lon="2.83767">
        <ele>1149.451904</ele>
        <time>2011-09-01T15:03:06Z</time>
      </trkpt>
      <trkpt lat="45.12108" lon="2.8352">
        <ele>1138.755615</ele>
        <time>2011-09-01T15:04:25Z</time>
      </trkpt>
      <trkpt lat="45.12055" lon="2.83453">
        <ele>1129.901123</ele>
        <time>2011-09-01T15:04:53Z</time>
      </trkpt>
      <trkpt lat="45.12038" lon="2.83423">
        <ele>1131.233032</ele>
        <time>2011-09-01T15:05:04Z</time>
      </trkpt>
      <trkpt lat="45.12019" lon="2.83392">
        <ele>1132.417236</ele>
        <time>2011-09-01T15:05:15Z</time>
      </trkpt>
      <trkpt lat="45.12012" lon="2.83361">
        <ele>1132.575928</ele>
        <time>2011-09-01T15:05:25Z</time>
      </trkpt>
      <trkpt lat="45.12007" lon="2.83344">
        <ele>1132.30188</ele>
        <time>2011-09-01T15:05:30Z</time>
      </trkpt>
      <trkpt lat="45.12002" lon="2.8333">
        <ele>1131.165894</ele>
        <time>2011-09-01T15:05:35Z</time>
      </trkpt>
      <trkpt lat="45.11962" lon="2.83369">
        <ele>1120.841797</ele>
        <time>2011-09-01T15:05:54Z</time>
      </trkpt>
      <trkpt lat="45.11919" lon="2.83463">
        <ele>1111.957642</ele>
        <time>2011-09-01T15:06:25Z</time>
      </trkpt>
      <trkpt lat="45.11918" lon="2.83467">
        <ele>1111.626343</ele>
        <time>2011-09-01T15:06:27Z</time>
      </trkpt>
      <trkpt lat="45.11917" lon="2.83467">
        <ele>1111.538696</ele>
        <time>2011-09-01T15:06:27Z</time>
      </trkpt>
      <trkpt lat="45.11913" lon="2.83473">
        <ele>1111.127197</ele>
        <time>2011-09-01T15:06:29Z</time>
      </trkpt>
      <trkpt lat="45.1191" lon="2.83478">
        <ele>1110.761108</ele>
        <time>2011-09-01T15:06:31Z</time>
      </trkpt>
      <trkpt lat="45.11911" lon="2.83482">
        <ele>1110.56958</ele>
        <time>2011-09-01T15:06:32Z</time>
      </trkpt>
      <trkpt lat="45.11899" lon="2.83492">
        <ele>1109.997314</ele>
        <time>2011-09-01T15:06:38Z</time>
      </trkpt>
      <trkpt lat="45.1187" lon="2.83498">
        <ele>1109.955322</ele>
        <time>2011-09-01T15:06:50Z</time>
      </trkpt>
      <trkpt lat="45.11848" lon="2.83495">
        <ele>1109.524902</ele>
        <time>2011-09-01T15:06:58Z</time>
      </trkpt>
      <trkpt lat="45.11844" lon="2.83485">
        <ele>1109.257324</ele>
        <time>2011-09-01T15:07:01Z</time>
      </trkpt>
      <trkpt lat="45.11846" lon="2.83459">
        <ele>1108.786499</ele>
        <time>2011-09-01T15:07:09Z</time>
      </trkpt>
      <trkpt lat="45.1185" lon="2.83415">
        <ele>1106.873657</ele>
        <time>2011-09-01T15:07:21Z</time>
      </trkpt>
      <trkpt lat="45.1185" lon="2.83372">
        <ele>1104.074951</ele>
        <time>2011-09-01T15:07:34Z</time>
      </trkpt>
      <trkpt lat="45.11847" lon="2.83333">
        <ele>1100.512207</ele>
        <time>2011-09-01T15:07:45Z</time>
      </trkpt>
      <trkpt lat="45.11845" lon="2.83313">
        <ele>1098.462158</ele>
        <time>2011-09-01T15:07:50Z</time>
      </trkpt>
      <trkpt lat="45.11844" lon="2.832">
        <ele>1090.219482</ele>
        <time>2011-09-01T15:08:22Z</time>
      </trkpt>
      <trkpt lat="45.11843" lon="2.83174">
        <ele>1089.6073</ele>
        <time>2011-09-01T15:08:29Z</time>
      </trkpt>
      <trkpt lat="45.11833" lon="2.83107">
        <ele>1088.285889</ele>
        <time>2011-09-01T15:08:49Z</time>
      </trkpt>
      <trkpt lat="45.11831" lon="2.83012">
        <ele>1087.029541</ele>
        <time>2011-09-01T15:09:16Z</time>
      </trkpt>
      <trkpt lat="45.11825" lon="2.82986">
        <ele>1085.332397</ele>
        <time>2011-09-01T15:09:23Z</time>
      </trkpt>
      <trkpt lat="45.11815" lon="2.82916">
        <ele>1079.126831</ele>
        <time>2011-09-01T15:09:44Z</time>
      </trkpt>
      <trkpt lat="45.11813" lon="2.82902">
        <ele>1077.476074</ele>
        <time>2011-09-01T15:09:48Z</time>
      </trkpt>
      <trkpt lat="45.11868" lon="2.8263">
        <ele>1060.866089</ele>
        <time>2011-09-01T15:11:08Z</time>
      </trkpt>
      <trkpt lat="45.11883" lon="2.82534">
        <ele>1055.422974</ele>
        <time>2011-09-01T15:11:35Z</time>
      </trkpt>
      <trkpt lat="45.11896" lon="2.8244">
        <ele>1050.963013</ele>
        <time>2011-09-01T15:12:02Z</time>
      </trkpt>
      <trkpt lat="45.11892" lon="2.82414">
        <ele>1048.38208</ele>
        <time>2011-09-01T15:12:10Z</time>
      </trkpt>
      <trkpt lat="45.11879" lon="2.82378">
        <ele>1042.645874</ele>
        <time>2011-09-01T15:12:21Z</time>
      </trkpt>
      <trkpt lat="45.11859" lon="2.82357">
        <ele>1039.118774</ele>
        <time>2011-09-01T15:12:31Z</time>
      </trkpt>
      <trkpt lat="45.11859" lon="2.82356">
        <ele>1039.026001</ele>
        <time>2011-09-01T15:12:32Z</time>
      </trkpt>
      <trkpt lat="45.11838" lon="2.82338">
        <ele>1035.494141</ele>
        <time>2011-09-01T15:12:41Z</time>
      </trkpt>
      <trkpt lat="45.11832" lon="2.82336">
        <ele>1034.348999</ele>
        <time>2011-09-01T15:12:44Z</time>
      </trkpt>
      <trkpt lat="45.11819" lon="2.82358">
        <ele>1031.197876</ele>
        <time>2011-09-01T15:12:52Z</time>
      </trkpt>
      <trkpt lat="45.11807" lon="2.82374">
        <ele>1028.673462</ele>
        <time>2011-09-01T15:12:59Z</time>
      </trkpt>
      <trkpt lat="45.11804" lon="2.82386">
        <ele>1028.165771</ele>
        <time>2011-09-01T15:13:02Z</time>
      </trkpt>
      <trkpt lat="45.11791" lon="2.82398">
        <ele>1026.031616</ele>
        <time>2011-09-01T15:13:08Z</time>
      </trkpt>
      <trkpt lat="45.11779" lon="2.8242">
        <ele>1023.76886</ele>
        <time>2011-09-01T15:13:16Z</time>
      </trkpt>
      <trkpt lat="45.11779" lon="2.82423">
        <ele>1023.817749</ele>
        <time>2011-09-01T15:13:17Z</time>
      </trkpt>
      <trkpt lat="45.11778" lon="2.82427">
        <ele>1023.76001</ele>
        <time>2011-09-01T15:13:18Z</time>
      </trkpt>
      <trkpt lat="45.11776" lon="2.82431">
        <ele>1023.424683</ele>
        <time>2011-09-01T15:13:20Z</time>
      </trkpt>
      <trkpt lat="45.11774" lon="2.82432">
        <ele>1023.023926</ele>
        <time>2011-09-01T15:13:20Z</time>
      </trkpt>
      <trkpt lat="45.11771" lon="2.82432">
        <ele>1022.188599</ele>
        <time>2011-09-01T15:13:22Z</time>
      </trkpt>
      <trkpt lat="45.11768" lon="2.8243">
        <ele>1021.597961</ele>
        <time>2011-09-01T15:13:23Z</time>
      </trkpt>
      <trkpt lat="45.11766" lon="2.82427">
        <ele>1021.129517</ele>
        <time>2011-09-01T15:13:24Z</time>
      </trkpt>
      <trkpt lat="45.11763" lon="2.82425">
        <ele>1020.380554</ele>
        <time>2011-09-01T15:13:26Z</time>
      </trkpt>
      <trkpt lat="45.11761" lon="2.82421">
        <ele>1019.893921</ele>
        <time>2011-09-01T15:13:27Z</time>
      </trkpt>
      <trkpt lat="45.1176" lon="2.82418">
        <ele>1019.687256</ele>
        <time>2011-09-01T15:13:28Z</time>
      </trkpt>
      <trkpt lat="45.1176" lon="2.82413">
        <ele>1019.611877</ele>
        <time>2011-09-01T15:13:29Z</time>
      </trkpt>
      <trkpt lat="45.1176" lon="2.8241">
        <ele>1019.411865</ele>
        <time>2011-09-01T15:13:30Z</time>
      </trkpt>
      <trkpt lat="45.1176" lon="2.82406">
        <ele>1019.337158</ele>
        <time>2011-09-01T15:13:31Z</time>
      </trkpt>
      <trkpt lat="45.11759" lon="2.82402">
        <ele>1019.137085</ele>
        <time>2011-09-01T15:13:32Z</time>
      </trkpt>
      <trkpt lat="45.11759" lon="2.82399">
        <ele>1018.936768</ele>
        <time>2011-09-01T15:13:33Z</time>
      </trkpt>
      <trkpt lat="45.11739" lon="2.82333">
        <ele>1014.116638</ele>
        <time>2011-09-01T15:13:54Z</time>
      </trkpt>
      <trkpt lat="45.11723" lon="2.82157">
        <ele>1001.195007</ele>
        <time>2011-09-01T15:14:44Z</time>
      </trkpt>
      <trkpt lat="45.11713" lon="2.82158">
        <ele>998.823059</ele>
        <time>2011-09-01T15:14:48Z</time>
      </trkpt>
      <trkpt lat="45.11669" lon="2.82217">
        <ele>994.187988</ele>
        <time>2011-09-01T15:15:12Z</time>
      </trkpt>
      <trkpt lat="45.11645" lon="2.82252">
        <ele>990.321594</ele>
        <time>2011-09-01T15:15:26Z</time>
      </trkpt>
      <trkpt lat="45.11631" lon="2.82266">
        <ele>985.679321</ele>
        <time>2011-09-01T15:15:33Z</time>
      </trkpt>
      <trkpt lat="45.11637" lon="2.82317">
        <ele>987.463135</ele>
        <time>2011-09-01T15:15:47Z</time>
      </trkpt>
      <trkpt lat="45.11646" lon="2.82353">
        <ele>988.239563</ele>
        <time>2011-09-01T15:15:58Z</time>
      </trkpt>
      <trkpt lat="45.11646" lon="2.82376">
        <ele>987.177124</ele>
        <time>2011-09-01T15:16:04Z</time>
      </trkpt>
      <trkpt lat="45.11643" lon="2.82405">
        <ele>986.023621</ele>
        <time>2011-09-01T15:16:13Z</time>
      </trkpt>
      <trkpt lat="45.11629" lon="2.82463">
        <ele>980.965332</ele>
        <time>2011-09-01T15:16:30Z</time>
      </trkpt>
      <trkpt lat="45.11626" lon="2.82491">
        <ele>980.940674</ele>
        <time>2011-09-01T15:16:38Z</time>
      </trkpt>
      <trkpt lat="45.11616" lon="2.82528">
        <ele>979.486816</ele>
        <time>2011-09-01T15:16:49Z</time>
      </trkpt>
      <trkpt lat="45.11595" lon="2.82568">
        <ele>977.218445</ele>
        <time>2011-09-01T15:17:03Z</time>
      </trkpt>
      <trkpt lat="45.11577" lon="2.82589">
        <ele>975.38501</ele>
        <time>2011-09-01T15:17:13Z</time>
      </trkpt>
      <trkpt lat="45.11562" lon="2.82604">
        <ele>974.227661</ele>
        <time>2011-09-01T15:17:20Z</time>
      </trkpt>
      <trkpt lat="45.11537" lon="2.8261">
        <ele>970.425415</ele>
        <time>2011-09-01T15:17:30Z</time>
      </trkpt>
      <trkpt lat="45.11516" lon="2.826">
        <ele>964.572266</ele>
        <time>2011-09-01T15:17:39Z</time>
      </trkpt>
      <trkpt lat="45.11515" lon="2.826">
        <ele>964.3526</ele>
        <time>2011-09-01T15:17:40Z</time>
      </trkpt>
      <trkpt lat="45.11503" lon="2.82606">
        <ele>963.262817</ele>
        <time>2011-09-01T15:17:44Z</time>
      </trkpt>
      <trkpt lat="45.11446" lon="2.82643">
        <ele>957.415222</ele>
        <time>2011-09-01T15:18:10Z</time>
      </trkpt>
      <trkpt lat="45.11421" lon="2.82667">
        <ele>953.308777</ele>
        <time>2011-09-01T15:18:22Z</time>
      </trkpt>
      <trkpt lat="45.11409" lon="2.82665">
        <ele>949.49115</ele>
        <time>2011-09-01T15:18:26Z</time>
      </trkpt>
      <trkpt lat="45.11383" lon="2.82671">
        <ele>941.490417</ele>
        <time>2011-09-01T15:18:37Z</time>
      </trkpt>
      <trkpt lat="45.11368" lon="2.8269">
        <ele>938.19635</ele>
        <time>2011-09-01T15:18:45Z</time>
      </trkpt>
      <trkpt lat="45.11355" lon="2.8272">
        <ele>935.062378</ele>
        <time>2011-09-01T15:18:55Z</time>
      </trkpt>
      <trkpt lat="45.11327" lon="2.82844">
        <ele>930.441101</ele>
        <time>2011-09-01T15:19:32Z</time>
      </trkpt>
      <trkpt lat="45.11322" lon="2.8284">
        <ele>929.190613</ele>
        <time>2011-09-01T15:19:34Z</time>
      </trkpt>
      <trkpt lat="45.11318" lon="2.82835">
        <ele>928.093079</ele>
        <time>2011-09-01T15:19:36Z</time>
      </trkpt>
      <trkpt lat="45.11327" lon="2.82802">
        <ele>929.301453</ele>
        <time>2011-09-01T15:19:46Z</time>
      </trkpt>
      <trkpt lat="45.11327" lon="2.82779">
        <ele>928.736877</ele>
        <time>2011-09-01T15:19:53Z</time>
      </trkpt>
      <trkpt lat="45.11328" lon="2.82741">
        <ele>928.097412</ele>
        <time>2011-09-01T15:20:04Z</time>
      </trkpt>
      <trkpt lat="45.11315" lon="2.82684">
        <ele>924.493591</ele>
        <time>2011-09-01T15:20:21Z</time>
      </trkpt>
      <trkpt lat="45.113" lon="2.82665">
        <ele>921.213379</ele>
        <time>2011-09-01T15:20:29Z</time>
      </trkpt>
      <trkpt lat="45.11274" lon="2.82623">
        <ele>917.61377</ele>
        <time>2011-09-01T15:20:45Z</time>
      </trkpt>
      <trkpt lat="45.11267" lon="2.82599">
        <ele>916.484192</ele>
        <time>2011-09-01T15:20:52Z</time>
      </trkpt>
      <trkpt lat="45.11259" lon="2.82594">
        <ele>915.962646</ele>
        <time>2011-09-01T15:20:56Z</time>
      </trkpt>
      <trkpt lat="45.11232" lon="2.82604">
        <ele>915.7323</ele>
        <time>2011-09-01T15:21:06Z</time>
      </trkpt>
      <trkpt lat="45.11219" lon="2.826">
        <ele>915.832214</ele>
        <time>2011-09-01T15:21:12Z</time>
      </trkpt>
      <trkpt lat="45.11192" lon="2.82598">
        <ele>916.307861</ele>
        <time>2011-09-01T15:21:23Z</time>
      </trkpt>
      <trkpt lat="45.11189" lon="2.82579">
        <ele>916.507141</ele>
        <time>2011-09-01T15:21:28Z</time>
      </trkpt>
      <trkpt lat="45.11195" lon="2.82549">
        <ele>916.518311</ele>
        <time>2011-09-01T15:21:37Z</time>
      </trkpt>
      <trkpt lat="45.112" lon="2.82535">
        <ele>916.543884</ele>
        <time>2011-09-01T15:21:41Z</time>
      </trkpt>
      <trkpt lat="45.11038" lon="2.82503">
        <ele>916.397339</ele>
        <time>2011-09-01T15:22:47Z</time>
      </trkpt>
      <trkpt lat="45.10958" lon="2.82517">
        <ele>918.283569</ele>
        <time>2011-09-01T15:23:19Z</time>
      </trkpt>
      <trkpt lat="45.10938" lon="2.8252">
        <ele>919.581848</ele>
        <time>2011-09-01T15:23:27Z</time>
      </trkpt>
      <trkpt lat="45.10925" lon="2.82534">
        <ele>921.237183</ele>
        <time>2011-09-01T15:23:34Z</time>
      </trkpt>
      <trkpt lat="45.10928" lon="2.82575">
        <ele>920.592163</ele>
        <time>2011-09-01T15:23:45Z</time>
      </trkpt>
      <trkpt lat="45.10928" lon="2.82596">
        <ele>920.618164</ele>
        <time>2011-09-01T15:23:51Z</time>
      </trkpt>
      <trkpt lat="45.10924" lon="2.82616">
        <ele>921.406311</ele>
        <time>2011-09-01T15:23:57Z</time>
      </trkpt>
      <trkpt lat="45.10919" lon="2.8263">
        <ele>922.466431</ele>
        <time>2011-09-01T15:24:02Z</time>
      </trkpt>
      <trkpt lat="45.10909" lon="2.82643">
        <ele>924.588257</ele>
        <time>2011-09-01T15:24:07Z</time>
      </trkpt>
      <trkpt lat="45.10882" lon="2.82662">
        <ele>931.147644</ele>
        <time>2011-09-01T15:24:19Z</time>
      </trkpt>
      <trkpt lat="45.10861" lon="2.82674">
        <ele>939.252686</ele>
        <time>2011-09-01T15:24:28Z</time>
      </trkpt>
      <trkpt lat="45.1085" lon="2.82684">
        <ele>943.613037</ele>
        <time>2011-09-01T15:24:33Z</time>
      </trkpt>
      <trkpt lat="45.1084" lon="2.82692">
        <ele>947.592468</ele>
        <time>2011-09-01T15:24:38Z</time>
      </trkpt>
      <trkpt lat="45.1083" lon="2.82681">
        <ele>951.563049</ele>
        <time>2011-09-01T15:24:43Z</time>
      </trkpt>
      <trkpt lat="45.10809" lon="2.82653">
        <ele>958.185364</ele>
        <time>2011-09-01T15:24:55Z</time>
      </trkpt>
      <trkpt lat="45.10779" lon="2.82615">
        <ele>967.86792</ele>
        <time>2011-09-01T15:25:11Z</time>
      </trkpt>
      <trkpt lat="45.10736" lon="2.82577">
        <ele>978.186035</ele>
        <time>2011-09-01T15:25:31Z</time>
      </trkpt>
      <trkpt lat="45.10708" lon="2.82545">
        <ele>981.807068</ele>
        <time>2011-09-01T15:25:45Z</time>
      </trkpt>
      <trkpt lat="45.10689" lon="2.82527">
        <ele>984.654114</ele>
        <time>2011-09-01T15:25:55Z</time>
      </trkpt>
      <trkpt lat="45.1068" lon="2.82515">
        <ele>986.180481</ele>
        <time>2011-09-01T15:26:00Z</time>
      </trkpt>
      <trkpt lat="45.1067" lon="2.82501">
        <ele>988.235291</ele>
        <time>2011-09-01T15:26:05Z</time>
      </trkpt>
      <trkpt lat="45.10665" lon="2.82497">
        <ele>989.268311</ele>
        <time>2011-09-01T15:26:07Z</time>
      </trkpt>
      <trkpt lat="45.1066" lon="2.82504">
        <ele>990.672424</ele>
        <time>2011-09-01T15:26:10Z</time>
      </trkpt>
      <trkpt lat="45.10654" lon="2.82522">
        <ele>992.555847</ele>
        <time>2011-09-01T15:26:16Z</time>
      </trkpt>
      <trkpt lat="45.10656" lon="2.82531">
        <ele>991.865906</ele>
        <time>2011-09-01T15:26:19Z</time>
      </trkpt>
      <trkpt lat="45.10655" lon="2.82541">
        <ele>992.125854</ele>
        <time>2011-09-01T15:26:21Z</time>
      </trkpt>
      <trkpt lat="45.10657" lon="2.82556">
        <ele>991.275391</ele>
        <time>2011-09-01T15:26:26Z</time>
      </trkpt>
      <trkpt lat="45.10666" lon="2.82562">
        <ele>989.794128</ele>
        <time>2011-09-01T15:26:30Z</time>
      </trkpt>
      <trkpt lat="45.10669" lon="2.82574">
        <ele>991.528992</ele>
        <time>2011-09-01T15:26:33Z</time>
      </trkpt>
      <trkpt lat="45.10665" lon="2.82594">
        <ele>995.977722</ele>
        <time>2011-09-01T15:26:39Z</time>
      </trkpt>
      <trkpt lat="45.10667" lon="2.82605">
        <ele>997.966736</ele>
        <time>2011-09-01T15:26:42Z</time>
      </trkpt>
      <trkpt lat="45.10671" lon="2.82617">
        <ele>999.849121</ele>
        <time>2011-09-01T15:26:46Z</time>
      </trkpt>
      <trkpt lat="45.10673" lon="2.82631">
        <ele>1002.169373</ele>
        <time>2011-09-01T15:26:50Z</time>
      </trkpt>
      <trkpt lat="45.10673" lon="2.82637">
        <ele>1003.266907</ele>
        <time>2011-09-01T15:26:52Z</time>
      </trkpt>
      <trkpt lat="45.10665" lon="2.82645">
        <ele>1005.372498</ele>
        <time>2011-09-01T15:26:56Z</time>
      </trkpt>
      <trkpt lat="45.10605" lon="2.82704">
        <ele>1015.740784</ele>
        <time>2011-09-01T15:27:25Z</time>
      </trkpt>
      <trkpt lat="45.10595" lon="2.82703">
        <ele>1015.792725</ele>
        <time>2011-09-01T15:27:29Z</time>
      </trkpt>
      <trkpt lat="45.10569" lon="2.82699">
        <ele>1016.093079</ele>
        <time>2011-09-01T15:27:39Z</time>
      </trkpt>
      <trkpt lat="45.10519" lon="2.8268">
        <ele>1022.7146</ele>
        <time>2011-09-01T15:28:00Z</time>
      </trkpt>
      <trkpt lat="45.1049" lon="2.82681">
        <ele>1028.7323</ele>
        <time>2011-09-01T15:28:12Z</time>
      </trkpt>
      <trkpt lat="45.10476" lon="2.82681">
        <ele>1032.26062</ele>
        <time>2011-09-01T15:28:17Z</time>
      </trkpt>
      <trkpt lat="45.1047" lon="2.82663">
        <ele>1036.524048</ele>
        <time>2011-09-01T15:28:23Z</time>
      </trkpt>
      <trkpt lat="45.10465" lon="2.82651">
        <ele>1039.96106</ele>
        <time>2011-09-01T15:28:27Z</time>
      </trkpt>
      <trkpt lat="45.10465" lon="2.82625">
        <ele>1044.188721</ele>
        <time>2011-09-01T15:28:34Z</time>
      </trkpt>
      <trkpt lat="45.10469" lon="2.82597">
        <ele>1048.161255</ele>
        <time>2011-09-01T15:28:42Z</time>
      </trkpt>
      <trkpt lat="45.10477" lon="2.82563">
        <ele>1050.152344</ele>
        <time>2011-09-01T15:28:52Z</time>
      </trkpt>
      <trkpt lat="45.10501" lon="2.82499">
        <ele>1056.557007</ele>
        <time>2011-09-01T15:29:13Z</time>
      </trkpt>
      <trkpt lat="45.10535" lon="2.82443">
        <ele>1053.906738</ele>
        <time>2011-09-01T15:29:34Z</time>
      </trkpt>
      <trkpt lat="45.10554" lon="2.82359">
        <ele>1061.596802</ele>
        <time>2011-09-01T15:29:59Z</time>
      </trkpt>
      <trkpt lat="45.10559" lon="2.82311">
        <ele>1065.250122</ele>
        <time>2011-09-01T15:30:13Z</time>
      </trkpt>
      <trkpt lat="45.10557" lon="2.82243">
        <ele>1072.998047</ele>
        <time>2011-09-01T15:30:32Z</time>
      </trkpt>
      <trkpt lat="45.10549" lon="2.82189">
        <ele>1078.78772</ele>
        <time>2011-09-01T15:30:47Z</time>
      </trkpt>
      <trkpt lat="45.1054" lon="2.82151">
        <ele>1083.266113</ele>
        <time>2011-09-01T15:30:59Z</time>
      </trkpt>
      <trkpt lat="45.10537" lon="2.82141">
        <ele>1084.762939</ele>
        <time>2011-09-01T15:31:02Z</time>
      </trkpt>
      <trkpt lat="45.10519" lon="2.82179">
        <ele>1090.500977</ele>
        <time>2011-09-01T15:31:14Z</time>
      </trkpt>
      <trkpt lat="45.10515" lon="2.822">
        <ele>1091.669067</ele>
        <time>2011-09-01T15:31:21Z</time>
      </trkpt>
      <trkpt lat="45.10512" lon="2.82223">
        <ele>1092.107544</ele>
        <time>2011-09-01T15:31:27Z</time>
      </trkpt>
      <trkpt lat="45.10496" lon="2.82273">
        <ele>1095.229736</ele>
        <time>2011-09-01T15:31:43Z</time>
      </trkpt>
      <trkpt lat="45.10475" lon="2.82312">
        <ele>1100.461304</ele>
        <time>2011-09-01T15:31:57Z</time>
      </trkpt>
      <trkpt lat="45.10466" lon="2.82329">
        <ele>1102.118774</ele>
        <time>2011-09-01T15:32:03Z</time>
      </trkpt>
      <trkpt lat="45.10428" lon="2.82406">
        <ele>1109.193237</ele>
        <time>2011-09-01T15:32:29Z</time>
      </trkpt>
      <trkpt lat="45.10399" lon="2.8243">
        <ele>1119.07666</ele>
        <time>2011-09-01T15:32:42Z</time>
      </trkpt>
      <trkpt lat="45.10379" lon="2.82443">
        <ele>1123.020264</ele>
        <time>2011-09-01T15:32:51Z</time>
      </trkpt>
      <trkpt lat="45.1035" lon="2.82458">
        <ele>1127.794189</ele>
        <time>2011-09-01T15:33:04Z</time>
      </trkpt>
      <trkpt lat="45.10323" lon="2.82455">
        <ele>1128.840576</ele>
        <time>2011-09-01T15:33:15Z</time>
      </trkpt>
      <trkpt lat="45.10303" lon="2.82452">
        <ele>1129.458984</ele>
        <time>2011-09-01T15:33:23Z</time>
      </trkpt>
      <trkpt lat="45.10302" lon="2.82452">
        <ele>1129.469116</ele>
        <time>2011-09-01T15:33:23Z</time>
      </trkpt>
      <trkpt lat="45.1028" lon="2.82444">
        <ele>1130.570923</ele>
        <time>2011-09-01T15:33:32Z</time>
      </trkpt>
      <trkpt lat="45.10198" lon="2.82488">
        <ele>1127.239136</ele>
        <time>2011-09-01T15:34:07Z</time>
      </trkpt>
      <trkpt lat="45.10176" lon="2.82501">
        <ele>1126.481567</ele>
        <time>2011-09-01T15:34:17Z</time>
      </trkpt>
      <trkpt lat="45.10175" lon="2.82503">
        <ele>1126.387451</ele>
        <time>2011-09-01T15:34:17Z</time>
      </trkpt>
      <trkpt lat="45.10165" lon="2.82512">
        <ele>1125.447266</ele>
        <time>2011-09-01T15:34:22Z</time>
      </trkpt>
      <trkpt lat="45.10162" lon="2.82523">
        <ele>1124.484497</ele>
        <time>2011-09-01T15:34:25Z</time>
      </trkpt>
      <trkpt lat="45.10158" lon="2.82544">
        <ele>1122.707275</ele>
        <time>2011-09-01T15:34:32Z</time>
      </trkpt>
      <trkpt lat="45.10157" lon="2.82552">
        <ele>1122.05188</ele>
        <time>2011-09-01T15:34:34Z</time>
      </trkpt>
      <trkpt lat="45.10154" lon="2.82559">
        <ele>1121.213867</ele>
        <time>2011-09-01T15:34:36Z</time>
      </trkpt>
      <trkpt lat="45.1015" lon="2.82559">
        <ele>1120.812256</ele>
        <time>2011-09-01T15:34:38Z</time>
      </trkpt>
      <trkpt lat="45.10144" lon="2.82553">
        <ele>1120.567749</ele>
        <time>2011-09-01T15:34:41Z</time>
      </trkpt>
      <trkpt lat="45.10136" lon="2.82547">
        <ele>1119.995117</ele>
        <time>2011-09-01T15:34:45Z</time>
      </trkpt>
      <trkpt lat="45.10133" lon="2.82556">
        <ele>1119.127563</ele>
        <time>2011-09-01T15:34:47Z</time>
      </trkpt>
      <trkpt lat="45.1014" lon="2.82574">
        <ele>1118.564453</ele>
        <time>2011-09-01T15:34:53Z</time>
      </trkpt>
      <trkpt lat="45.10144" lon="2.82587">
        <ele>1118.17395</ele>
        <time>2011-09-01T15:34:57Z</time>
      </trkpt>
      <trkpt lat="45.10132" lon="2.82694">
        <ele>1109.155029</ele>
        <time>2011-09-01T15:35:28Z</time>
      </trkpt>
      <trkpt lat="45.10118" lon="2.82752">
        <ele>1102.89502</ele>
        <time>2011-09-01T15:35:45Z</time>
      </trkpt>
      <trkpt lat="45.10117" lon="2.82788">
        <ele>1099.997192</ele>
        <time>2011-09-01T15:35:55Z</time>
      </trkpt>
      <trkpt lat="45.10128" lon="2.8283">
        <ele>1098.18103</ele>
        <time>2011-09-01T15:36:08Z</time>
      </trkpt>
      <trkpt lat="45.10138" lon="2.82863">
        <ele>1096.683716</ele>
        <time>2011-09-01T15:36:18Z</time>
      </trkpt>
      <trkpt lat="45.10142" lon="2.8288">
        <ele>1095.851196</ele>
        <time>2011-09-01T15:36:23Z</time>
      </trkpt>
      <trkpt lat="45.10148" lon="2.82891">
        <ele>1095.736328</ele>
        <time>2011-09-01T15:36:27Z</time>
      </trkpt>
      <trkpt lat="45.10144" lon="2.82894">
        <ele>1095.068115</ele>
        <time>2011-09-01T15:36:29Z</time>
      </trkpt>
      <trkpt lat="45.10133" lon="2.82886">
        <ele>1094.323975</ele>
        <time>2011-09-01T15:36:34Z</time>
      </trkpt>
      <trkpt lat="45.10092" lon="2.82871">
        <ele>1089.07251</ele>
        <time>2011-09-01T15:36:51Z</time>
      </trkpt>
      <trkpt lat="45.10061" lon="2.82905">
        <ele>1081.724243</ele>
        <time>2011-09-01T15:37:06Z</time>
      </trkpt>
      <trkpt lat="45.10049" lon="2.82915">
        <ele>1079.106445</ele>
        <time>2011-09-01T15:37:12Z</time>
      </trkpt>
      <trkpt lat="45.10027" lon="2.8294">
        <ele>1074.811646</ele>
        <time>2011-09-01T15:37:24Z</time>
      </trkpt>
      <trkpt lat="45.10022" lon="2.82966">
        <ele>1073.64563</ele>
        <time>2011-09-01T15:37:31Z</time>
      </trkpt>
      <trkpt lat="45.10016" lon="2.8299">
        <ele>1073.019165</ele>
        <time>2011-09-01T15:37:38Z</time>
      </trkpt>
      <trkpt lat="45.10015" lon="2.83014">
        <ele>1072.972534</ele>
        <time>2011-09-01T15:37:45Z</time>
      </trkpt>
      <trkpt lat="45.10015" lon="2.83028">
        <ele>1073.178345</ele>
        <time>2011-09-01T15:37:49Z</time>
      </trkpt>
      <trkpt lat="45.10022" lon="2.83056">
        <ele>1072.821045</ele>
        <time>2011-09-01T15:37:57Z</time>
      </trkpt>
      <trkpt lat="45.10033" lon="2.83071">
        <ele>1072.246704</ele>
        <time>2011-09-01T15:38:04Z</time>
      </trkpt>
      <trkpt lat="45.1004" lon="2.83097">
        <ele>1072.624023</ele>
        <time>2011-09-01T15:38:11Z</time>
      </trkpt>
      <trkpt lat="45.10044" lon="2.83118">
        <ele>1072.681641</ele>
        <time>2011-09-01T15:38:17Z</time>
      </trkpt>
      <trkpt lat="45.1005" lon="2.83221">
        <ele>1072.646606</ele>
        <time>2011-09-01T15:38:47Z</time>
      </trkpt>
      <trkpt lat="45.10064" lon="2.83288">
        <ele>1070.41687</ele>
        <time>2011-09-01T15:39:07Z</time>
      </trkpt>
      <trkpt lat="45.10066" lon="2.83317">
        <ele>1070.991211</ele>
        <time>2011-09-01T15:39:15Z</time>
      </trkpt>
      <trkpt lat="45.10156" lon="2.83618">
        <ele>1063.782349</ele>
        <time>2011-09-01T15:40:47Z</time>
      </trkpt>
      <trkpt lat="45.10132" lon="2.83833">
        <ele>1062.068604</ele>
        <time>2011-09-01T15:41:49Z</time>
      </trkpt>
      <trkpt lat="45.10122" lon="2.83943">
        <ele>1036.910522</ele>
        <time>2011-09-01T15:42:20Z</time>
      </trkpt>
      <trkpt lat="45.10102" lon="2.83984">
        <ele>1035.739746</ele>
        <time>2011-09-01T15:42:34Z</time>
      </trkpt>
      <trkpt lat="45.10089" lon="2.84013">
        <ele>1036.365967</ele>
        <time>2011-09-01T15:42:44Z</time>
      </trkpt>
      <trkpt lat="45.10089" lon="2.84015">
        <ele>1036.05957</ele>
        <time>2011-09-01T15:42:45Z</time>
      </trkpt>
      <trkpt lat="45.10079" lon="2.84047">
        <ele>1034.435669</ele>
        <time>2011-09-01T15:42:54Z</time>
      </trkpt>
      <trkpt lat="45.10074" lon="2.84096">
        <ele>1028.590454</ele>
        <time>2011-09-01T15:43:08Z</time>
      </trkpt>
      <trkpt lat="45.10074" lon="2.84121">
        <ele>1026.325684</ele>
        <time>2011-09-01T15:43:15Z</time>
      </trkpt>
      <trkpt lat="45.10061" lon="2.84242">
        <ele>1020.293701</ele>
        <time>2011-09-01T15:43:50Z</time>
      </trkpt>
      <trkpt lat="45.1005" lon="2.84497">
        <ele>996.361023</ele>
        <time>2011-09-01T15:45:02Z</time>
      </trkpt>
      <trkpt lat="45.10063" lon="2.84564">
        <ele>982.544983</ele>
        <time>2011-09-01T15:45:22Z</time>
      </trkpt>
      <trkpt lat="45.10056" lon="2.8461">
        <ele>980.452393</ele>
        <time>2011-09-01T15:45:35Z</time>
      </trkpt>
      <trkpt lat="45.10032" lon="2.84669">
        <ele>981.52356</ele>
        <time>2011-09-01T15:45:54Z</time>
      </trkpt>
      <trkpt lat="45.10025" lon="2.84697">
        <ele>979.79541</ele>
        <time>2011-09-01T15:46:03Z</time>
      </trkpt>
      <trkpt lat="45.10015" lon="2.84727">
        <ele>977.956238</ele>
        <time>2011-09-01T15:46:12Z</time>
      </trkpt>
      <trkpt lat="45.1001" lon="2.84774">
        <ele>970.36853</ele>
        <time>2011-09-01T15:46:25Z</time>
      </trkpt>
      <trkpt lat="45.10001" lon="2.848">
        <ele>965.620239</ele>
        <time>2011-09-01T15:46:34Z</time>
      </trkpt>
      <trkpt lat="45.09988" lon="2.8481">
        <ele>967.17334</ele>
        <time>2011-09-01T15:46:40Z</time>
      </trkpt>
      <trkpt lat="45.09955" lon="2.84856">
        <ele>966.285156</ele>
        <time>2011-09-01T15:46:58Z</time>
      </trkpt>
      <trkpt lat="45.09926" lon="2.84941">
        <ele>955.104919</ele>
        <time>2011-09-01T15:47:25Z</time>
      </trkpt>
      <trkpt lat="45.09918" lon="2.84987">
        <ele>947.526367</ele>
        <time>2011-09-01T15:47:38Z</time>
      </trkpt>
      <trkpt lat="45.09905" lon="2.85044">
        <ele>937.815491</ele>
        <time>2011-09-01T15:47:55Z</time>
      </trkpt>
      <trkpt lat="45.09891" lon="2.85079">
        <ele>933.82605</ele>
        <time>2011-09-01T15:48:07Z</time>
      </trkpt>
      <trkpt lat="45.09864" lon="2.85102">
        <ele>931.576111</ele>
        <time>2011-09-01T15:48:19Z</time>
      </trkpt>
      <trkpt lat="45.09842" lon="2.85101">
        <ele>932.325562</ele>
        <time>2011-09-01T15:48:28Z</time>
      </trkpt>
      <trkpt lat="45.09819" lon="2.85098">
        <ele>936.494812</ele>
        <time>2011-09-01T15:48:37Z</time>
      </trkpt>
      <trkpt lat="45.09813" lon="2.85096">
        <ele>937.945801</ele>
        <time>2011-09-01T15:48:40Z</time>
      </trkpt>
      <trkpt lat="45.09747" lon="2.85002">
        <ele>952.404541</ele>
        <time>2011-09-01T15:49:17Z</time>
      </trkpt>
      <trkpt lat="45.09504" lon="2.8484">
        <ele>962.289307</ele>
        <time>2011-09-01T15:51:05Z</time>
      </trkpt>
      <trkpt lat="45.09421" lon="2.84765">
        <ele>970.303833</ele>
        <time>2011-09-01T15:51:45Z</time>
      </trkpt>
      <trkpt lat="45.09342" lon="2.84604">
        <ele>973.847107</ele>
        <time>2011-09-01T15:52:40Z</time>
      </trkpt>
      <trkpt lat="45.09214" lon="2.84461">
        <ele>982.872925</ele>
        <time>2011-09-01T15:53:45Z</time>
      </trkpt>
      <trkpt lat="45.09017" lon="2.84268">
        <ele>996.804382</ele>
        <time>2011-09-01T15:55:21Z</time>
      </trkpt>
      <trkpt lat="45.08829" lon="2.84116">
        <ele>1006.714233</ele>
        <time>2011-09-01T15:56:48Z</time>
      </trkpt>
      <trkpt lat="45.08631" lon="2.83943">
        <ele>1016.496155</ele>
        <time>2011-09-01T15:58:21Z</time>
      </trkpt>
      <trkpt lat="45.0859" lon="2.83906">
        <ele>1019.172607</ele>
        <time>2011-09-01T15:58:40Z</time>
      </trkpt>
      <trkpt lat="45.08429" lon="2.83743">
        <ele>1024.572754</ele>
        <time>2011-09-01T15:59:59Z</time>
      </trkpt>
      <trkpt lat="45.08368" lon="2.83643">
        <ele>1024.984375</ele>
        <time>2011-09-01T16:00:37Z</time>
      </trkpt>
      <trkpt lat="45.08114" lon="2.834">
        <ele>1037.378906</ele>
        <time>2011-09-01T16:02:40Z</time>
      </trkpt>
      <trkpt lat="45.07994" lon="2.83323">
        <ele>1042.908813</ele>
        <time>2011-09-01T16:03:32Z</time>
      </trkpt>
      <trkpt lat="45.07854" lon="2.83222">
        <ele>1045.169189</ele>
        <time>2011-09-01T16:04:35Z</time>
      </trkpt>
      <trkpt lat="45.07833" lon="2.83205">
        <ele>1044.860352</ele>
        <time>2011-09-01T16:04:45Z</time>
      </trkpt>
      <trkpt lat="45.07826" lon="2.83194">
        <ele>1044.989624</ele>
        <time>2011-09-01T16:04:49Z</time>
      </trkpt>
      <trkpt lat="45.0782" lon="2.83177">
        <ele>1045.066772</ele>
        <time>2011-09-01T16:04:54Z</time>
      </trkpt>
      <trkpt lat="45.07797" lon="2.83087">
        <ele>1045.252441</ele>
        <time>2011-09-01T16:05:21Z</time>
      </trkpt>
      <trkpt lat="45.07785" lon="2.8307">
        <ele>1046.057373</ele>
        <time>2011-09-01T16:05:28Z</time>
      </trkpt>
      <trkpt lat="45.07779" lon="2.83051">
        <ele>1046.483765</ele>
        <time>2011-09-01T16:05:34Z</time>
      </trkpt>
      <trkpt lat="45.07769" lon="2.83038">
        <ele>1048.334106</ele>
        <time>2011-09-01T16:05:40Z</time>
      </trkpt>
      <trkpt lat="45.07758" lon="2.83038">
        <ele>1050.3479</ele>
        <time>2011-09-01T16:05:44Z</time>
      </trkpt>
      <trkpt lat="45.07757" lon="2.8304">
        <ele>1050.49585</ele>
        <time>2011-09-01T16:05:45Z</time>
      </trkpt>
      <trkpt lat="45.07743" lon="2.83046">
        <ele>1052.799194</ele>
        <time>2011-09-01T16:05:51Z</time>
      </trkpt>
      <trkpt lat="45.07725" lon="2.8306">
        <ele>1055.988281</ele>
        <time>2011-09-01T16:05:59Z</time>
      </trkpt>
      <trkpt lat="45.0771" lon="2.83087">
        <ele>1057.586914</ele>
        <time>2011-09-01T16:06:08Z</time>
      </trkpt>
      <trkpt lat="45.07641" lon="2.83167">
        <ele>1064.400024</ele>
        <time>2011-09-01T16:06:44Z</time>
      </trkpt>
      <trkpt lat="45.07618" lon="2.83211">
        <ele>1067.508057</ele>
        <time>2011-09-01T16:07:00Z</time>
      </trkpt>
      <trkpt lat="45.07604" lon="2.83247">
        <ele>1068.435181</ele>
        <time>2011-09-01T16:07:11Z</time>
      </trkpt>
      <trkpt lat="45.07589" lon="2.83275">
        <ele>1070.46228</ele>
        <time>2011-09-01T16:07:21Z</time>
      </trkpt>
      <trkpt lat="45.07588" lon="2.83276">
        <ele>1070.700317</ele>
        <time>2011-09-01T16:07:21Z</time>
      </trkpt>
      <trkpt lat="45.0757" lon="2.83307">
        <ele>1073.130493</ele>
        <time>2011-09-01T16:07:33Z</time>
      </trkpt>
      <trkpt lat="45.07547" lon="2.83315">
        <ele>1076.654419</ele>
        <time>2011-09-01T16:07:42Z</time>
      </trkpt>
      <trkpt lat="45.07459" lon="2.83272">
        <ele>1082.995239</ele>
        <time>2011-09-01T16:08:19Z</time>
      </trkpt>
      <trkpt lat="45.0742" lon="2.83234">
        <ele>1087.852051</ele>
        <time>2011-09-01T16:08:39Z</time>
      </trkpt>
      <trkpt lat="45.0741" lon="2.832">
        <ele>1092.625977</ele>
        <time>2011-09-01T16:08:49Z</time>
      </trkpt>
      <trkpt lat="45.07394" lon="2.83137">
        <ele>1097.576782</ele>
        <time>2011-09-01T16:09:08Z</time>
      </trkpt>
      <trkpt lat="45.07388" lon="2.83081">
        <ele>1100.543945</ele>
        <time>2011-09-01T16:09:24Z</time>
      </trkpt>
      <trkpt lat="45.074" lon="2.83017">
        <ele>1105.088867</ele>
        <time>2011-09-01T16:09:43Z</time>
      </trkpt>
      <trkpt lat="45.07408" lon="2.82973">
        <ele>1107.107666</ele>
        <time>2011-09-01T16:09:55Z</time>
      </trkpt>
      <trkpt lat="45.07409" lon="2.82933">
        <ele>1108.749634</ele>
        <time>2011-09-01T16:10:07Z</time>
      </trkpt>
      <trkpt lat="45.07398" lon="2.82893">
        <ele>1111.278687</ele>
        <time>2011-09-01T16:10:19Z</time>
      </trkpt>
      <trkpt lat="45.07362" lon="2.82816">
        <ele>1118.734131</ele>
        <time>2011-09-01T16:10:45Z</time>
      </trkpt>
      <trkpt lat="45.07338" lon="2.82784">
        <ele>1121.166748</ele>
        <time>2011-09-01T16:10:58Z</time>
      </trkpt>
      <trkpt lat="45.07308" lon="2.82748">
        <ele>1123.695557</ele>
        <time>2011-09-01T16:11:14Z</time>
      </trkpt>
      <trkpt lat="45.07308" lon="2.82747">
        <ele>1123.840454</ele>
        <time>2011-09-01T16:11:14Z</time>
      </trkpt>
      <trkpt lat="45.07294" lon="2.82721">
        <ele>1126.223389</ele>
        <time>2011-09-01T16:11:23Z</time>
      </trkpt>
      <trkpt lat="45.07282" lon="2.82686">
        <ele>1129.135376</ele>
        <time>2011-09-01T16:11:34Z</time>
      </trkpt>
      <trkpt lat="45.07274" lon="2.82524">
        <ele>1142.736084</ele>
        <time>2011-09-01T16:12:20Z</time>
      </trkpt>
      <trkpt lat="45.07241" lon="2.82366">
        <ele>1153.072876</ele>
        <time>2011-09-01T16:13:07Z</time>
      </trkpt>
      <trkpt lat="45.07119" lon="2.82117">
        <ele>1168.491455</ele>
        <time>2011-09-01T16:14:33Z</time>
      </trkpt>
      <trkpt lat="45.06931" lon="2.81827">
        <ele>1185.147705</ele>
        <time>2011-09-01T16:16:24Z</time>
      </trkpt>
      <trkpt lat="45.0666" lon="2.81411">
        <ele>1219.146851</ele>
        <time>2011-09-01T16:19:04Z</time>
      </trkpt>
      <trkpt lat="45.06584" lon="2.81182">
        <ele>1228.5177</ele>
        <time>2011-09-01T16:20:15Z</time>
      </trkpt>
      <trkpt lat="45.06514" lon="2.80887">
        <ele>1245.05835</ele>
        <time>2011-09-01T16:21:43Z</time>
      </trkpt>
      <trkpt lat="45.06486" lon="2.80802">
        <ele>1248.598999</ele>
        <time>2011-09-01T16:22:10Z</time>
      </trkpt>
      <trkpt lat="45.06424" lon="2.80697">
        <ele>1250.955688</ele>
        <time>2011-09-01T16:22:48Z</time>
      </trkpt>
      <trkpt lat="45.0638" lon="2.80591">
        <ele>1261.063965</ele>
        <time>2011-09-01T16:23:23Z</time>
      </trkpt>
      <trkpt lat="45.06358" lon="2.80526">
        <ele>1266.096924</ele>
        <time>2011-09-01T16:23:44Z</time>
      </trkpt>
      <trkpt lat="45.06342" lon="2.80481">
        <ele>1269.179688</ele>
        <time>2011-09-01T16:23:58Z</time>
      </trkpt>
      <trkpt lat="45.06332" lon="2.80456">
        <ele>1270.456787</ele>
        <time>2011-09-01T16:24:06Z</time>
      </trkpt>
      <trkpt lat="45.06327" lon="2.80434">
        <ele>1271.60022</ele>
        <time>2011-09-01T16:24:13Z</time>
      </trkpt>
      <trkpt lat="45.06318" lon="2.80422">
        <ele>1271.495728</ele>
        <time>2011-09-01T16:24:17Z</time>
      </trkpt>
      <trkpt lat="45.06308" lon="2.80419">
        <ele>1270.648193</ele>
        <time>2011-09-01T16:24:21Z</time>
      </trkpt>
      <trkpt lat="45.06297" lon="2.80415">
        <ele>1270.036743</ele>
        <time>2011-09-01T16:24:26Z</time>
      </trkpt>
      <trkpt lat="45.06287" lon="2.80413">
        <ele>1269.370605</ele>
        <time>2011-09-01T16:24:30Z</time>
      </trkpt>
      <trkpt lat="45.06242" lon="2.80437">
        <ele>1271.820068</ele>
        <time>2011-09-01T16:24:49Z</time>
      </trkpt>
      <trkpt lat="45.06229" lon="2.8045">
        <ele>1274.109863</ele>
        <time>2011-09-01T16:24:56Z</time>
      </trkpt>
      <trkpt lat="45.06221" lon="2.80475">
        <ele>1273.778687</ele>
        <time>2011-09-01T16:25:04Z</time>
      </trkpt>
      <trkpt lat="45.06216" lon="2.805">
        <ele>1272.788574</ele>
        <time>2011-09-01T16:25:11Z</time>
      </trkpt>
      <trkpt lat="45.06216" lon="2.80502">
        <ele>1272.608154</ele>
        <time>2011-09-01T16:25:11Z</time>
      </trkpt>
      <trkpt lat="45.06211" lon="2.8052">
        <ele>1272.588623</ele>
        <time>2011-09-01T16:25:17Z</time>
      </trkpt>
      <trkpt lat="45.0621" lon="2.80521">
        <ele>1272.808594</ele>
        <time>2011-09-01T16:25:17Z</time>
      </trkpt>
      <trkpt lat="45.06199" lon="2.80532">
        <ele>1274.784058</ele>
        <time>2011-09-01T16:25:23Z</time>
      </trkpt>
      <trkpt lat="45.06189" lon="2.80536">
        <ele>1277.131348</ele>
        <time>2011-09-01T16:25:27Z</time>
      </trkpt>
      <trkpt lat="45.06188" lon="2.80536">
        <ele>1277.426025</ele>
        <time>2011-09-01T16:25:28Z</time>
      </trkpt>
      <trkpt lat="45.06176" lon="2.80526">
        <ele>1281.585327</ele>
        <time>2011-09-01T16:25:33Z</time>
      </trkpt>
      <trkpt lat="45.06168" lon="2.80507">
        <ele>1286.138672</ele>
        <time>2011-09-01T16:25:39Z</time>
      </trkpt>
      <trkpt lat="45.06158" lon="2.80428">
        <ele>1295.575073</ele>
        <time>2011-09-01T16:26:02Z</time>
      </trkpt>
      <trkpt lat="45.06104" lon="2.80268">
        <ele>1301.844238</ele>
        <time>2011-09-01T16:26:52Z</time>
      </trkpt>
      <trkpt lat="45.0601" lon="2.80077">
        <ele>1309.235107</ele>
        <time>2011-09-01T16:27:58Z</time>
      </trkpt>
      <trkpt lat="45.05925" lon="2.79967">
        <ele>1322.486572</ele>
        <time>2011-09-01T16:28:44Z</time>
      </trkpt>
      <trkpt lat="45.05849" lon="2.79908">
        <ele>1332.192871</ele>
        <time>2011-09-01T16:29:19Z</time>
      </trkpt>
      <trkpt lat="45.05687" lon="2.79768">
        <ele>1352.707764</ele>
        <time>2011-09-01T16:30:35Z</time>
      </trkpt>
      <trkpt lat="45.05573" lon="2.79591">
        <ele>1358.195679</ele>
        <time>2011-09-01T16:31:42Z</time>
      </trkpt>
      <trkpt lat="45.05497" lon="2.79419">
        <ele>1366.536377</ele>
        <time>2011-09-01T16:32:40Z</time>
      </trkpt>
      <trkpt lat="45.05479" lon="2.79388">
        <ele>1368.380249</ele>
        <time>2011-09-01T16:32:51Z</time>
      </trkpt>
      <trkpt lat="45.05478" lon="2.79387">
        <ele>1368.533813</ele>
        <time>2011-09-01T16:32:52Z</time>
      </trkpt>
      <trkpt lat="45.05464" lon="2.79377">
        <ele>1370.346191</ele>
        <time>2011-09-01T16:32:58Z</time>
      </trkpt>
      <trkpt lat="45.05463" lon="2.79377">
        <ele>1370.409546</ele>
        <time>2011-09-01T16:32:58Z</time>
      </trkpt>
      <trkpt lat="45.05362" lon="2.79397">
        <ele>1376.449707</ele>
        <time>2011-09-01T16:33:39Z</time>
      </trkpt>
      <trkpt lat="45.05316" lon="2.79356">
        <ele>1381.158447</ele>
        <time>2011-09-01T16:34:01Z</time>
      </trkpt>
      <trkpt lat="45.05293" lon="2.79348">
        <ele>1382.736206</ele>
        <time>2011-09-01T16:34:10Z</time>
      </trkpt>
      <trkpt lat="45.05261" lon="2.79343">
        <ele>1384.892334</ele>
        <time>2011-09-01T16:34:23Z</time>
      </trkpt>
      <trkpt lat="45.05222" lon="2.79342">
        <ele>1387.88562</ele>
        <time>2011-09-01T16:34:39Z</time>
      </trkpt>
      <trkpt lat="45.05195" lon="2.79352">
        <ele>1389.22522</ele>
        <time>2011-09-01T16:34:50Z</time>
      </trkpt>
      <trkpt lat="45.0517" lon="2.79372">
        <ele>1389.099243</ele>
        <time>2011-09-01T16:35:01Z</time>
      </trkpt>
      <trkpt lat="45.05163" lon="2.79391">
        <ele>1387.851807</ele>
        <time>2011-09-01T16:35:07Z</time>
      </trkpt>
      <trkpt lat="45.05159" lon="2.79402">
        <ele>1387.012207</ele>
        <time>2011-09-01T16:35:11Z</time>
      </trkpt>
      <trkpt lat="45.05154" lon="2.79398">
        <ele>1387.801147</ele>
        <time>2011-09-01T16:35:14Z</time>
      </trkpt>
      <trkpt lat="45.05176" lon="2.79352">
        <ele>1390.572754</ele>
        <time>2011-09-01T16:35:29Z</time>
      </trkpt>
      <trkpt lat="45.0522" lon="2.79336">
        <ele>1388.588989</ele>
        <time>2011-09-01T16:35:47Z</time>
      </trkpt>
      <trkpt lat="45.0529" lon="2.79333">
        <ele>1384.216431</ele>
        <time>2011-09-01T16:36:15Z</time>
      </trkpt>
      <trkpt lat="45.05306" lon="2.7933">
        <ele>1383.754761</ele>
        <time>2011-09-01T16:36:22Z</time>
      </trkpt>
      <trkpt lat="45.05312" lon="2.79313">
        <ele>1385.10498</ele>
        <time>2011-09-01T16:36:27Z</time>
      </trkpt>
      <trkpt lat="45.05312" lon="2.79298">
        <ele>1386.558716</ele>
        <time>2011-09-01T16:36:31Z</time>
      </trkpt>
      <trkpt lat="45.05312" lon="2.7929">
        <ele>1387.338623</ele>
        <time>2011-09-01T16:36:34Z</time>
      </trkpt>
      <trkpt lat="45.05288" lon="2.79112">
        <ele>1396.588501</ele>
        <time>2011-09-01T16:37:25Z</time>
      </trkpt>
      <trkpt lat="45.05322" lon="2.78931">
        <ele>1401.230347</ele>
        <time>2011-09-01T16:38:18Z</time>
      </trkpt>
      <trkpt lat="45.05326" lon="2.7892">
        <ele>1401.217773</ele>
        <time>2011-09-01T16:38:21Z</time>
      </trkpt>
      <trkpt lat="45.0532" lon="2.78857">
        <ele>1405.730103</ele>
        <time>2011-09-01T16:38:39Z</time>
      </trkpt>
      <trkpt lat="45.05324" lon="2.78841">
        <ele>1406.498657</ele>
        <time>2011-09-01T16:38:44Z</time>
      </trkpt>
      <trkpt lat="45.05329" lon="2.78823">
        <ele>1407.638794</ele>
        <time>2011-09-01T16:38:49Z</time>
      </trkpt>
      <trkpt lat="45.05337" lon="2.78816">
        <ele>1407.879883</ele>
        <time>2011-09-01T16:38:53Z</time>
      </trkpt>
      <trkpt lat="45.05349" lon="2.78819">
        <ele>1407.119995</ele>
        <time>2011-09-01T16:38:58Z</time>
      </trkpt>
      <trkpt lat="45.05418" lon="2.78837">
        <ele>1407.967041</ele>
        <time>2011-09-01T16:39:26Z</time>
      </trkpt>
      <trkpt lat="45.0543" lon="2.78838">
        <ele>1409.312866</ele>
        <time>2011-09-01T16:39:31Z</time>
      </trkpt>
      <trkpt lat="45.0544" lon="2.78832">
        <ele>1410.843994</ele>
        <time>2011-09-01T16:39:35Z</time>
      </trkpt>
      <trkpt lat="45.05459" lon="2.78817">
        <ele>1413.589722</ele>
        <time>2011-09-01T16:39:44Z</time>
      </trkpt>
      <trkpt lat="45.05475" lon="2.78789">
        <ele>1416.997803</ele>
        <time>2011-09-01T16:39:54Z</time>
      </trkpt>
      <trkpt lat="45.0554" lon="2.7881">
        <ele>1423.407715</ele>
        <time>2011-09-01T16:40:21Z</time>
      </trkpt>
      <trkpt lat="45.05579" lon="2.78833">
        <ele>1425.694946</ele>
        <time>2011-09-01T16:40:38Z</time>
      </trkpt>
      <trkpt lat="45.05593" lon="2.78839">
        <ele>1426.34314</ele>
        <time>2011-09-01T16:40:44Z</time>
      </trkpt>
      <trkpt lat="45.0562" lon="2.78818">
        <ele>1430.600708</ele>
        <time>2011-09-01T16:40:56Z</time>
      </trkpt>
      <trkpt lat="45.05629" lon="2.78802">
        <ele>1433.101685</ele>
        <time>2011-09-01T16:41:02Z</time>
      </trkpt>
      <trkpt lat="45.0563" lon="2.7879">
        <ele>1434.672852</ele>
        <time>2011-09-01T16:41:05Z</time>
      </trkpt>
      <trkpt lat="45.05621" lon="2.7871">
        <ele>1441.193237</ele>
        <time>2011-09-01T16:41:28Z</time>
      </trkpt>
      <trkpt lat="45.05626" lon="2.78694">
        <ele>1442.805298</ele>
        <time>2011-09-01T16:41:33Z</time>
      </trkpt>
      <trkpt lat="45.05632" lon="2.78681">
        <ele>1444.378174</ele>
        <time>2011-09-01T16:41:37Z</time>
      </trkpt>
      <trkpt lat="45.05637" lon="2.78678">
        <ele>1445.369141</ele>
        <time>2011-09-01T16:41:40Z</time>
      </trkpt>
      <trkpt lat="45.05645" lon="2.78681">
        <ele>1446.278198</ele>
        <time>2011-09-01T16:41:43Z</time>
      </trkpt>
      <trkpt lat="45.05677" lon="2.78699">
        <ele>1448.74585</ele>
        <time>2011-09-01T16:41:57Z</time>
      </trkpt>
      <trkpt lat="45.05694" lon="2.78691">
        <ele>1451.173462</ele>
        <time>2011-09-01T16:42:04Z</time>
      </trkpt>
      <trkpt lat="45.05706" lon="2.78685">
        <ele>1452.756836</ele>
        <time>2011-09-01T16:42:09Z</time>
      </trkpt>
      <trkpt lat="45.05713" lon="2.78674">
        <ele>1454.606201</ele>
        <time>2011-09-01T16:42:13Z</time>
      </trkpt>
      <trkpt lat="45.0572" lon="2.78669">
        <ele>1455.913574</ele>
        <time>2011-09-01T16:42:16Z</time>
      </trkpt>
      <trkpt lat="45.05722" lon="2.7866">
        <ele>1457.114136</ele>
        <time>2011-09-01T16:42:19Z</time>
      </trkpt>
      <trkpt lat="45.0572" lon="2.7865">
        <ele>1458.032715</ele>
        <time>2011-09-01T16:42:22Z</time>
      </trkpt>
      <trkpt lat="45.05715" lon="2.78644">
        <ele>1458.021973</ele>
        <time>2011-09-01T16:42:25Z</time>
      </trkpt>
      <trkpt lat="45.05686" lon="2.78607">
        <ele>1458.143677</ele>
        <time>2011-09-01T16:42:40Z</time>
      </trkpt>
      <trkpt lat="45.05667" lon="2.78559">
        <ele>1460.709839</ele>
        <time>2011-09-01T16:42:56Z</time>
      </trkpt>
      <trkpt lat="45.05663" lon="2.78478">
        <ele>1470.470093</ele>
        <time>2011-09-01T16:43:19Z</time>
      </trkpt>
      <trkpt lat="45.05682" lon="2.78343">
        <ele>1485.767212</ele>
        <time>2011-09-01T16:43:58Z</time>
      </trkpt>
      <trkpt lat="45.0569" lon="2.7825">
        <ele>1490.422974</ele>
        <time>2011-09-01T16:44:24Z</time>
      </trkpt>
      <trkpt lat="45.0572" lon="2.78193">
        <ele>1493.82312</ele>
        <time>2011-09-01T16:44:44Z</time>
      </trkpt>
      <trkpt lat="45.05736" lon="2.78158">
        <ele>1495.260986</ele>
        <time>2011-09-01T16:44:56Z</time>
      </trkpt>
      <trkpt lat="45.05739" lon="2.78124">
        <ele>1495.644897</ele>
        <time>2011-09-01T16:45:06Z</time>
      </trkpt>
      <trkpt lat="45.05744" lon="2.78099">
        <ele>1496.210083</ele>
        <time>2011-09-01T16:45:13Z</time>
      </trkpt>
      <trkpt lat="45.05751" lon="2.78083">
        <ele>1496.952637</ele>
        <time>2011-09-01T16:45:18Z</time>
      </trkpt>
      <trkpt lat="45.05757" lon="2.78063">
        <ele>1497.662964</ele>
        <time>2011-09-01T16:45:24Z</time>
      </trkpt>
      <trkpt lat="45.05814" lon="2.77987">
        <ele>1505.036377</ele>
        <time>2011-09-01T16:45:56Z</time>
      </trkpt>
      <trkpt lat="45.05898" lon="2.77921">
        <ele>1519.063599</ele>
        <time>2011-09-01T16:46:34Z</time>
      </trkpt>
      <trkpt lat="45.05933" lon="2.7785">
        <ele>1526.528687</ele>
        <time>2011-09-01T16:46:59Z</time>
      </trkpt>
      <trkpt lat="45.05948" lon="2.77835">
        <ele>1529.062256</ele>
        <time>2011-09-01T16:47:06Z</time>
      </trkpt>
      <trkpt lat="45.05954" lon="2.77827">
        <ele>1530.059692</ele>
        <time>2011-09-01T16:47:09Z</time>
      </trkpt>
      <trkpt lat="45.05959" lon="2.77825">
        <ele>1530.973511</ele>
        <time>2011-09-01T16:47:12Z</time>
      </trkpt>
      <trkpt lat="45.05966" lon="2.77827">
        <ele>1532.16687</ele>
        <time>2011-09-01T16:47:15Z</time>
      </trkpt>
      <trkpt lat="45.05971" lon="2.77832">
        <ele>1532.864868</ele>
        <time>2011-09-01T16:47:17Z</time>
      </trkpt>
      <trkpt lat="45.05976" lon="2.77835">
        <ele>1533.737671</ele>
        <time>2011-09-01T16:47:19Z</time>
      </trkpt>
      <trkpt lat="45.05978" lon="2.77838">
        <ele>1533.966431</ele>
        <time>2011-09-01T16:47:20Z</time>
      </trkpt>
      <trkpt lat="45.05979" lon="2.77846">
        <ele>1533.995117</ele>
        <time>2011-09-01T16:47:23Z</time>
      </trkpt>
      <trkpt lat="45.06003" lon="2.77876">
        <ele>1537.143433</ele>
        <time>2011-09-01T16:47:35Z</time>
      </trkpt>
      <trkpt lat="45.06008" lon="2.77876">
        <ele>1537.929565</ele>
        <time>2011-09-01T16:47:37Z</time>
      </trkpt>
      <trkpt lat="45.06012" lon="2.77872">
        <ele>1538.656006</ele>
        <time>2011-09-01T16:47:39Z</time>
      </trkpt>
      <trkpt lat="45.06012" lon="2.77864">
        <ele>1539.036499</ele>
        <time>2011-09-01T16:47:41Z</time>
      </trkpt>
      <trkpt lat="45.06011" lon="2.77852">
        <ele>1539.217285</ele>
        <time>2011-09-01T16:47:45Z</time>
      </trkpt>
      <trkpt lat="45.06008" lon="2.77841">
        <ele>1539.067261</ele>
        <time>2011-09-01T16:47:48Z</time>
      </trkpt>
      <trkpt lat="45.06003" lon="2.77813">
        <ele>1538.85144</ele>
        <time>2011-09-01T16:47:57Z</time>
      </trkpt>
      <trkpt lat="45.06008" lon="2.77805">
        <ele>1539.889893</ele>
        <time>2011-09-01T16:48:00Z</time>
      </trkpt>
      <trkpt lat="45.06012" lon="2.77802">
        <ele>1540.839478</ele>
        <time>2011-09-01T16:48:02Z</time>
      </trkpt>
      <trkpt lat="45.06018" lon="2.77805">
        <ele>1541.771729</ele>
        <time>2011-09-01T16:48:04Z</time>
      </trkpt>
      <trkpt lat="45.06023" lon="2.77809">
        <ele>1542.597412</ele>
        <time>2011-09-01T16:48:06Z</time>
      </trkpt>
      <trkpt lat="45.06046" lon="2.77854">
        <ele>1545.098022</ele>
        <time>2011-09-01T16:48:22Z</time>
      </trkpt>
      <trkpt lat="45.06059" lon="2.77871">
        <ele>1546.496582</ele>
        <time>2011-09-01T16:48:29Z</time>
      </trkpt>
      <trkpt lat="45.06098" lon="2.77918">
        <ele>1549.5896</ele>
        <time>2011-09-01T16:48:50Z</time>
      </trkpt>
      <trkpt lat="45.06122" lon="2.77968">
        <ele>1549.929688</ele>
        <time>2011-09-01T16:49:07Z</time>
      </trkpt>
      <trkpt lat="45.0613" lon="2.77983">
        <ele>1550.820923</ele>
        <time>2011-09-01T16:49:12Z</time>
      </trkpt>
      <trkpt lat="45.06136" lon="2.77986">
        <ele>1551.607056</ele>
        <time>2011-09-01T16:49:14Z</time>
      </trkpt>
      <trkpt lat="45.0616" lon="2.77966">
        <ele>1555.401367</ele>
        <time>2011-09-01T16:49:26Z</time>
      </trkpt>
      <trkpt lat="45.0618" lon="2.7794">
        <ele>1558.604126</ele>
        <time>2011-09-01T16:49:37Z</time>
      </trkpt>
      <trkpt lat="45.06188" lon="2.7793">
        <ele>1559.989624</ele>
        <time>2011-09-01T16:49:41Z</time>
      </trkpt>
      <trkpt lat="45.06197" lon="2.77907">
        <ele>1561.714722</ele>
        <time>2011-09-01T16:49:48Z</time>
      </trkpt>
      <trkpt lat="45.06205" lon="2.77888">
        <ele>1563.211792</ele>
        <time>2011-09-01T16:49:54Z</time>
      </trkpt>
      <trkpt lat="45.06211" lon="2.77882">
        <ele>1564.306396</ele>
        <time>2011-09-01T16:49:57Z</time>
      </trkpt>
      <trkpt lat="45.06215" lon="2.77881">
        <ele>1565.019043</ele>
        <time>2011-09-01T16:49:59Z</time>
      </trkpt>
      <trkpt lat="45.06221" lon="2.77879">
        <ele>1566.040527</ele>
        <time>2011-09-01T16:50:02Z</time>
      </trkpt>
      <trkpt lat="45.06223" lon="2.77881">
        <ele>1566.285278</ele>
        <time>2011-09-01T16:50:02Z</time>
      </trkpt>
      <trkpt lat="45.06236" lon="2.77914">
        <ele>1567.79187</ele>
        <time>2011-09-01T16:50:13Z</time>
      </trkpt>
      <trkpt lat="45.06244" lon="2.77925">
        <ele>1568.874878</ele>
        <time>2011-09-01T16:50:18Z</time>
      </trkpt>
      <trkpt lat="45.06257" lon="2.77939">
        <ele>1570.785645</ele>
        <time>2011-09-01T16:50:24Z</time>
      </trkpt>
      <trkpt lat="45.06263" lon="2.77944">
        <ele>1571.498169</ele>
        <time>2011-09-01T16:50:27Z</time>
      </trkpt>
      <trkpt lat="45.06277" lon="2.7797">
        <ele>1572.507446</ele>
        <time>2011-09-01T16:50:36Z</time>
      </trkpt>
      <trkpt lat="45.06283" lon="2.77987">
        <ele>1572.168335</ele>
        <time>2011-09-01T16:50:42Z</time>
      </trkpt>
      <trkpt lat="45.06289" lon="2.77997">
        <ele>1571.983154</ele>
        <time>2011-09-01T16:50:45Z</time>
      </trkpt>
      <trkpt lat="45.06296" lon="2.78006">
        <ele>1571.746582</ele>
        <time>2011-09-01T16:50:49Z</time>
      </trkpt>
      <trkpt lat="45.06303" lon="2.78008">
        <ele>1572.071167</ele>
        <time>2011-09-01T16:50:52Z</time>
      </trkpt>
      <trkpt lat="45.0631" lon="2.78006">
        <ele>1572.574463</ele>
        <time>2011-09-01T16:50:55Z</time>
      </trkpt>
      <trkpt lat="45.06382" lon="2.77955">
        <ele>1583.58606</ele>
        <time>2011-09-01T16:51:27Z</time>
      </trkpt>
      <trkpt lat="45.06387" lon="2.77945">
        <ele>1585.088013</ele>
        <time>2011-09-01T16:51:30Z</time>
      </trkpt>
      <trkpt lat="45.06391" lon="2.77932">
        <ele>1587.113647</ele>
        <time>2011-09-01T16:51:34Z</time>
      </trkpt>
      <trkpt lat="45.06412" lon="2.77904">
        <ele>1592.916504</ele>
        <time>2011-09-01T16:51:46Z</time>
      </trkpt>
      <trkpt lat="45.06415" lon="2.77904">
        <ele>1593.061768</ele>
        <time>2011-09-01T16:51:47Z</time>
      </trkpt>
      <trkpt lat="45.06423" lon="2.77909">
        <ele>1592.667725</ele>
        <time>2011-09-01T16:51:51Z</time>
      </trkpt>
      <trkpt lat="45.06427" lon="2.77915">
        <ele>1591.900391</ele>
        <time>2011-09-01T16:51:53Z</time>
      </trkpt>
      <trkpt lat="45.06431" lon="2.77922">
        <ele>1591.009399</ele>
        <time>2011-09-01T16:51:56Z</time>
      </trkpt>
      <trkpt lat="45.06438" lon="2.7792">
        <ele>1591.579468</ele>
        <time>2011-09-01T16:51:59Z</time>
      </trkpt>
      <trkpt lat="45.06455" lon="2.77893">
        <ele>1596.554932</ele>
        <time>2011-09-01T16:52:09Z</time>
      </trkpt>
      <trkpt lat="45.06461" lon="2.77871">
        <ele>1601.410034</ele>
        <time>2011-09-01T16:52:15Z</time>
      </trkpt>
      <trkpt lat="45.0646" lon="2.77862">
        <ele>1603.074585</ele>
        <time>2011-09-01T16:52:18Z</time>
      </trkpt>
      <trkpt lat="45.06454" lon="2.77853">
        <ele>1604.006592</ele>
        <time>2011-09-01T16:52:21Z</time>
      </trkpt>
      <trkpt lat="45.06447" lon="2.77847">
        <ele>1604.53064</ele>
        <time>2011-09-01T16:52:25Z</time>
      </trkpt>
      <trkpt lat="45.06424" lon="2.77827">
        <ele>1606.234009</ele>
        <time>2011-09-01T16:52:35Z</time>
      </trkpt>
      <trkpt lat="45.06414" lon="2.77789">
        <ele>1609.300659</ele>
        <time>2011-09-01T16:52:47Z</time>
      </trkpt>
      <trkpt lat="45.0641" lon="2.77777">
        <ele>1609.726929</ele>
        <time>2011-09-01T16:52:51Z</time>
      </trkpt>
      <trkpt lat="45.06408" lon="2.77769">
        <ele>1610.16272</ele>
        <time>2011-09-01T16:52:53Z</time>
      </trkpt>
      <trkpt lat="45.06408" lon="2.77763">
        <ele>1610.669678</ele>
        <time>2011-09-01T16:52:55Z</time>
      </trkpt>
      <trkpt lat="45.06396" lon="2.77684">
        <ele>1615.165771</ele>
        <time>2011-09-01T16:53:17Z</time>
      </trkpt>
      <trkpt lat="45.06393" lon="2.7763">
        <ele>1619.824463</ele>
        <time>2011-09-01T16:53:33Z</time>
      </trkpt>
      <trkpt lat="45.06392" lon="2.77607">
        <ele>1621.733521</ele>
        <time>2011-09-01T16:53:39Z</time>
      </trkpt>
      <trkpt lat="45.06392" lon="2.77594">
        <ele>1623.033081</ele>
        <time>2011-09-01T16:53:43Z</time>
      </trkpt>
      <trkpt lat="45.06398" lon="2.77583">
        <ele>1625.303101</ele>
        <time>2011-09-01T16:53:47Z</time>
      </trkpt>
      <trkpt lat="45.06403" lon="2.7758">
        <ele>1626.691528</ele>
        <time>2011-09-01T16:53:49Z</time>
      </trkpt>
      <trkpt lat="45.06408" lon="2.77581">
        <ele>1627.770142</ele>
        <time>2011-09-01T16:53:51Z</time>
      </trkpt>
      <trkpt lat="45.06415" lon="2.77584">
        <ele>1628.989868</ele>
        <time>2011-09-01T16:53:54Z</time>
      </trkpt>
      <trkpt lat="45.06419" lon="2.77589">
        <ele>1629.526367</ele>
        <time>2011-09-01T16:53:56Z</time>
      </trkpt>
      <trkpt lat="45.06444" lon="2.77638">
        <ele>1630.380981</ele>
        <time>2011-09-01T16:54:13Z</time>
      </trkpt>
      <trkpt lat="45.06489" lon="2.77665">
        <ele>1638.2146</ele>
        <time>2011-09-01T16:54:33Z</time>
      </trkpt>
      <trkpt lat="45.0649" lon="2.77669">
        <ele>1638.265625</ele>
        <time>2011-09-01T16:54:34Z</time>
      </trkpt>
      <trkpt lat="45.0651" lon="2.77697">
        <ele>1640.690796</ele>
        <time>2011-09-01T16:54:45Z</time>
      </trkpt>
      <trkpt lat="45.06515" lon="2.77702">
        <ele>1641.63916</ele>
        <time>2011-09-01T16:54:48Z</time>
      </trkpt>
      <trkpt lat="45.06515" lon="2.77702">
        <ele>1641.665283</ele>
        <time>2011-09-01T16:54:48Z</time>
      </trkpt>
      <trkpt lat="45.0652" lon="2.77702">
        <ele>1642.890503</ele>
        <time>2011-09-01T16:54:50Z</time>
      </trkpt>
      <trkpt lat="45.06525" lon="2.77699">
        <ele>1644.307495</ele>
        <time>2011-09-01T16:54:52Z</time>
      </trkpt>
      <trkpt lat="45.06525" lon="2.77694">
        <ele>1644.834595</ele>
        <time>2011-09-01T16:54:53Z</time>
      </trkpt>
      <trkpt lat="45.06525" lon="2.77664">
        <ele>1647.352539</ele>
        <time>2011-09-01T16:55:02Z</time>
      </trkpt>
      <trkpt lat="45.06526" lon="2.77631">
        <ele>1650.478882</ele>
        <time>2011-09-01T16:55:11Z</time>
      </trkpt>
      <trkpt lat="45.06527" lon="2.77606">
        <ele>1652.776489</ele>
        <time>2011-09-01T16:55:18Z</time>
      </trkpt>
      <trkpt lat="45.06525" lon="2.77599">
        <ele>1653.049072</ele>
        <time>2011-09-01T16:55:20Z</time>
      </trkpt>
      <trkpt lat="45.06521" lon="2.77589">
        <ele>1652.674438</ele>
        <time>2011-09-01T16:55:24Z</time>
      </trkpt>
      <trkpt lat="45.06519" lon="2.77585">
        <ele>1652.766357</ele>
        <time>2011-09-01T16:55:25Z</time>
      </trkpt>
      <trkpt lat="45.06549" lon="2.77284">
        <ele>1677.698975</ele>
        <time>2011-09-01T16:56:51Z</time>
      </trkpt>
      <trkpt lat="45.06589" lon="2.7706">
        <ele>1699.19873</ele>
        <time>2011-09-01T16:57:56Z</time>
      </trkpt>
      <trkpt lat="45.06596" lon="2.76985">
        <ele>1704.176758</ele>
        <time>2011-09-01T16:58:18Z</time>
      </trkpt>
      <trkpt lat="45.06609" lon="2.76882">
        <ele>1715.239624</ele>
        <time>2011-09-01T16:58:47Z</time>
      </trkpt>
      <trkpt lat="45.06613" lon="2.76775">
        <ele>1727.640869</ele>
        <time>2011-09-01T16:59:17Z</time>
      </trkpt>
      <trkpt lat="45.06603" lon="2.7667">
        <ele>1737.262207</ele>
        <time>2011-09-01T16:59:47Z</time>
      </trkpt>
      <trkpt lat="45.06583" lon="2.76612">
        <ele>1742.004517</ele>
        <time>2011-09-01T17:00:06Z</time>
      </trkpt>
      <trkpt lat="45.06504" lon="2.7645">
        <ele>1757.848389</ele>
        <time>2011-09-01T17:01:01Z</time>
      </trkpt>
      <trkpt lat="45.06361" lon="2.76273">
        <ele>1773.674194</ele>
        <time>2011-09-01T17:02:17Z</time>
      </trkpt>
      <trkpt lat="45.06314" lon="2.7623">
        <ele>1779.533325</ele>
        <time>2011-09-01T17:02:40Z</time>
      </trkpt>
      <trkpt lat="45.06267" lon="2.76189">
        <ele>1788.226807</ele>
        <time>2011-09-01T17:03:02Z</time>
      </trkpt>
      <trkpt lat="45.06234" lon="2.76166">
        <ele>1794.320557</ele>
        <time>2011-09-01T17:03:17Z</time>
      </trkpt>
      <trkpt lat="45.06212" lon="2.76139">
        <ele>1800.088257</ele>
        <time>2011-09-01T17:03:28Z</time>
      </trkpt>
      <trkpt lat="45.06206" lon="2.76127">
        <ele>1802.340576</ele>
        <time>2011-09-01T17:03:32Z</time>
      </trkpt>
      <trkpt lat="45.06121" lon="2.76162">
        <ele>1806.467896</ele>
        <time>2011-09-01T17:04:08Z</time>
      </trkpt>
      <trkpt lat="45.06031" lon="2.76185">
        <ele>1812.316284</ele>
        <time>2011-09-01T17:04:45Z</time>
      </trkpt>
      <trkpt lat="45.0598" lon="2.76169">
        <ele>1821.171387</ele>
        <time>2011-09-01T17:05:05Z</time>
      </trkpt>
      <trkpt lat="45.05941" lon="2.76178">
        <ele>1829.915405</ele>
        <time>2011-09-01T17:05:21Z</time>
      </trkpt>
      <trkpt lat="45.05933" lon="2.76186">
        <ele>1829.636353</ele>
        <time>2011-09-01T17:05:25Z</time>
      </trkpt>
      <trkpt lat="45.05923" lon="2.76191">
        <ele>1829.994751</ele>
        <time>2011-09-01T17:05:29Z</time>
      </trkpt>
      <trkpt lat="45.0591" lon="2.76189">
        <ele>1831.397461</ele>
        <time>2011-09-01T17:05:35Z</time>
      </trkpt>
      <trkpt lat="45.05902" lon="2.76181">
        <ele>1835.494141</ele>
        <time>2011-09-01T17:05:39Z</time>
      </trkpt>
      <trkpt lat="45.05891" lon="2.76158">
        <ele>1839.698853</ele>
        <time>2011-09-01T17:05:47Z</time>
      </trkpt>
      <trkpt lat="45.05888" lon="2.76146">
        <ele>1839.645874</ele>
        <time>2011-09-01T17:05:50Z</time>
      </trkpt>
      <trkpt lat="45.05885" lon="2.76135">
        <ele>1839.666626</ele>
        <time>2011-09-01T17:05:53Z</time>
      </trkpt>
      <trkpt lat="45.05889" lon="2.76135">
        <ele>1839.364624</ele>
        <time>2011-09-01T17:05:55Z</time>
      </trkpt>
      <trkpt lat="45.05894" lon="2.76153">
        <ele>1839.379028</ele>
        <time>2011-09-01T17:06:00Z</time>
      </trkpt>
      <trkpt lat="45.05905" lon="2.76176">
        <ele>1837.449951</ele>
        <time>2011-09-01T17:06:08Z</time>
      </trkpt>
      <trkpt lat="45.05917" lon="2.76187">
        <ele>1832.200562</ele>
        <time>2011-09-01T17:06:14Z</time>
      </trkpt>
      <trkpt lat="45.05931" lon="2.7619">
        <ele>1828.523438</ele>
        <time>2011-09-01T17:06:20Z</time>
      </trkpt>
      <trkpt lat="45.05952" lon="2.76169">
        <ele>1828.094116</ele>
        <time>2011-09-01T17:06:30Z</time>
      </trkpt>
      <trkpt lat="45.0603" lon="2.76182">
        <ele>1812.907593</ele>
        <time>2011-09-01T17:07:02Z</time>
      </trkpt>
      <trkpt lat="45.06145" lon="2.76149">
        <ele>1805.480347</ele>
        <time>2011-09-01T17:07:48Z</time>
      </trkpt>
      <trkpt lat="45.06197" lon="2.76122">
        <ele>1804.039307</ele>
        <time>2011-09-01T17:08:10Z</time>
      </trkpt>
      <trkpt lat="45.06252" lon="2.76132">
        <ele>1796.738647</ele>
        <time>2011-09-01T17:08:33Z</time>
      </trkpt>
      <trkpt lat="45.06315" lon="2.76105">
        <ele>1790.835449</ele>
        <time>2011-09-01T17:08:59Z</time>
      </trkpt>
      <trkpt lat="45.06333" lon="2.7611">
        <ele>1787.807739</ele>
        <time>2011-09-01T17:09:07Z</time>
      </trkpt>
      <trkpt lat="45.06343" lon="2.76134">
        <ele>1785.503052</ele>
        <time>2011-09-01T17:09:14Z</time>
      </trkpt>
      <trkpt lat="45.0636" lon="2.76162">
        <ele>1782.901123</ele>
        <time>2011-09-01T17:09:25Z</time>
      </trkpt>
      <trkpt lat="45.06383" lon="2.76185">
        <ele>1780.251465</ele>
        <time>2011-09-01T17:09:36Z</time>
      </trkpt>
      <trkpt lat="45.06379" lon="2.76188">
        <ele>1780.449707</ele>
        <time>2011-09-01T17:09:38Z</time>
      </trkpt>
      <trkpt lat="45.06373" lon="2.76192">
        <ele>1780.748901</ele>
        <time>2011-09-01T17:09:40Z</time>
      </trkpt>
      <trkpt lat="45.06371" lon="2.762">
        <ele>1780.473877</ele>
        <time>2011-09-01T17:09:43Z</time>
      </trkpt>
      <trkpt lat="45.06371" lon="2.762">
        <ele>1780.413452</ele>
        <time>2011-09-01T17:09:43Z</time>
      </trkpt>
      <trkpt lat="45.06376" lon="2.76212">
        <ele>1779.402588</ele>
        <time>2011-09-01T17:09:47Z</time>
      </trkpt>
      <trkpt lat="45.06376" lon="2.76213">
        <ele>1779.35498</ele>
        <time>2011-09-01T17:09:47Z</time>
      </trkpt>
      <trkpt lat="45.06398" lon="2.76233">
        <ele>1777.55835</ele>
        <time>2011-09-01T17:09:57Z</time>
      </trkpt>
      <trkpt lat="45.06432" lon="2.76251">
        <ele>1775.385254</ele>
        <time>2011-09-01T17:10:12Z</time>
      </trkpt>
      <trkpt lat="45.0645" lon="2.76264">
        <ele>1774.05896</ele>
        <time>2011-09-01T17:10:20Z</time>
      </trkpt>
      <trkpt lat="45.0647" lon="2.76273">
        <ele>1772.643188</ele>
        <time>2011-09-01T17:10:28Z</time>
      </trkpt>
      <trkpt lat="45.06515" lon="2.7631">
        <ele>1771.360229</ele>
        <time>2011-09-01T17:10:50Z</time>
      </trkpt>
      <trkpt lat="45.06575" lon="2.76414">
        <ele>1773.293457</ele>
        <time>2011-09-01T17:11:28Z</time>
      </trkpt>
      <trkpt lat="45.06607" lon="2.76478">
        <ele>1765.862061</ele>
        <time>2011-09-01T17:11:49Z</time>
      </trkpt>
      <trkpt lat="45.06618" lon="2.76509">
        <ele>1760.154419</ele>
        <time>2011-09-01T17:11:59Z</time>
      </trkpt>
      <trkpt lat="45.06632" lon="2.76532">
        <ele>1756.539551</ele>
        <time>2011-09-01T17:12:08Z</time>
      </trkpt>
      <trkpt lat="45.06637" lon="2.76542">
        <ele>1755.390869</ele>
        <time>2011-09-01T17:12:11Z</time>
      </trkpt>
      <trkpt lat="45.06633" lon="2.76564">
        <ele>1753.684448</ele>
        <time>2011-09-01T17:12:18Z</time>
      </trkpt>
      <trkpt lat="45.06633" lon="2.76575">
        <ele>1752.885864</ele>
        <time>2011-09-01T17:12:21Z</time>
      </trkpt>
      <trkpt lat="45.06669" lon="2.7661">
        <ele>1748.890625</ele>
        <time>2011-09-01T17:12:38Z</time>
      </trkpt>
      <trkpt lat="45.06681" lon="2.76612">
        <ele>1748.500854</ele>
        <time>2011-09-01T17:12:43Z</time>
      </trkpt>
      <trkpt lat="45.06689" lon="2.76603">
        <ele>1745.793213</ele>
        <time>2011-09-01T17:12:47Z</time>
      </trkpt>
      <trkpt lat="45.06695" lon="2.76601">
        <ele>1743.91626</ele>
        <time>2011-09-01T17:12:49Z</time>
      </trkpt>
      <trkpt lat="45.06766" lon="2.76628">
        <ele>1734.40332</ele>
        <time>2011-09-01T17:13:19Z</time>
      </trkpt>
      <trkpt lat="45.06816" lon="2.76666">
        <ele>1731.401245</ele>
        <time>2011-09-01T17:13:42Z</time>
      </trkpt>
      <trkpt lat="45.06849" lon="2.76681">
        <ele>1726.485352</ele>
        <time>2011-09-01T17:13:56Z</time>
      </trkpt>
      <trkpt lat="45.06943" lon="2.76673">
        <ele>1709.494019</ele>
        <time>2011-09-01T17:14:33Z</time>
      </trkpt>
      <trkpt lat="45.07009" lon="2.76637">
        <ele>1694.493286</ele>
        <time>2011-09-01T17:15:02Z</time>
      </trkpt>
      <trkpt lat="45.07025" lon="2.76617">
        <ele>1688.617554</ele>
        <time>2011-09-01T17:15:10Z</time>
      </trkpt>
      <trkpt lat="45.07036" lon="2.76603">
        <ele>1685.773193</ele>
        <time>2011-09-01T17:15:16Z</time>
      </trkpt>
      <trkpt lat="45.07058" lon="2.76571">
        <ele>1678.082031</ele>
        <time>2011-09-01T17:15:29Z</time>
      </trkpt>
      <trkpt lat="45.07139" lon="2.76548">
        <ele>1671.23584</ele>
        <time>2011-09-01T17:16:02Z</time>
      </trkpt>
      <trkpt lat="45.07236" lon="2.76484">
        <ele>1656.026001</ele>
        <time>2011-09-01T17:16:44Z</time>
      </trkpt>
      <trkpt lat="45.07276" lon="2.76431">
        <ele>1642.565186</ele>
        <time>2011-09-01T17:17:06Z</time>
      </trkpt>
      <trkpt lat="45.07278" lon="2.76423">
        <ele>1639.43457</ele>
        <time>2011-09-01T17:17:09Z</time>
      </trkpt>
      <trkpt lat="45.07146" lon="2.76433">
        <ele>1629.599731</ele>
        <time>2011-09-01T17:18:02Z</time>
      </trkpt>
      <trkpt lat="45.07132" lon="2.7643">
        <ele>1628.456787</ele>
        <time>2011-09-01T17:18:08Z</time>
      </trkpt>
      <trkpt lat="45.07125" lon="2.76422">
        <ele>1626.809326</ele>
        <time>2011-09-01T17:18:11Z</time>
      </trkpt>
      <trkpt lat="45.07127" lon="2.76413">
        <ele>1622.99707</ele>
        <time>2011-09-01T17:18:14Z</time>
      </trkpt>
      <trkpt lat="45.07161" lon="2.76396">
        <ele>1616.548828</ele>
        <time>2011-09-01T17:18:28Z</time>
      </trkpt>
      <trkpt lat="45.07262" lon="2.76271">
        <ele>1588.498291</ele>
        <time>2011-09-01T17:19:22Z</time>
      </trkpt>
      <trkpt lat="45.07311" lon="2.76207">
        <ele>1574.066772</ele>
        <time>2011-09-01T17:19:48Z</time>
      </trkpt>
      <trkpt lat="45.07322" lon="2.76172">
        <ele>1566.329956</ele>
        <time>2011-09-01T17:19:59Z</time>
      </trkpt>
      <trkpt lat="45.07326" lon="2.76135">
        <ele>1562.512451</ele>
        <time>2011-09-01T17:20:10Z</time>
      </trkpt>
      <trkpt lat="45.0733" lon="2.76115">
        <ele>1560.41333</ele>
        <time>2011-09-01T17:20:16Z</time>
      </trkpt>
      <trkpt lat="45.07324" lon="2.76111">
        <ele>1560.995361</ele>
        <time>2011-09-01T17:20:19Z</time>
      </trkpt>
      <trkpt lat="45.07305" lon="2.76118">
        <ele>1560.261719</ele>
        <time>2011-09-01T17:20:26Z</time>
      </trkpt>
      <trkpt lat="45.07167" lon="2.76199">
        <ele>1546.311646</ele>
        <time>2011-09-01T17:21:26Z</time>
      </trkpt>
      <trkpt lat="45.07148" lon="2.76222">
        <ele>1548.859009</ele>
        <time>2011-09-01T17:21:36Z</time>
      </trkpt>
      <trkpt lat="45.07139" lon="2.7621">
        <ele>1543.357788</ele>
        <time>2011-09-01T17:21:41Z</time>
      </trkpt>
      <trkpt lat="45.07143" lon="2.76198">
        <ele>1540.71814</ele>
        <time>2011-09-01T17:21:45Z</time>
      </trkpt>
      <trkpt lat="45.07195" lon="2.76077">
        <ele>1519.013916</ele>
        <time>2011-09-01T17:22:25Z</time>
      </trkpt>
      <trkpt lat="45.07242" lon="2.76004">
        <ele>1512.214844</ele>
        <time>2011-09-01T17:22:53Z</time>
      </trkpt>
      <trkpt lat="45.07249" lon="2.75986">
        <ele>1509.542236</ele>
        <time>2011-09-01T17:22:59Z</time>
      </trkpt>
      <trkpt lat="45.0724" lon="2.75971">
        <ele>1502.349731</ele>
        <time>2011-09-01T17:23:04Z</time>
      </trkpt>
      <trkpt lat="45.07218" lon="2.75984">
        <ele>1499.752197</ele>
        <time>2011-09-01T17:23:14Z</time>
      </trkpt>
      <trkpt lat="45.07137" lon="2.75996">
        <ele>1484.24292</ele>
        <time>2011-09-01T17:23:46Z</time>
      </trkpt>
      <trkpt lat="45.07112" lon="2.75993">
        <ele>1482.420044</ele>
        <time>2011-09-01T17:23:56Z</time>
      </trkpt>
      <trkpt lat="45.07103" lon="2.7598">
        <ele>1480.213989</ele>
        <time>2011-09-01T17:24:01Z</time>
      </trkpt>
      <trkpt lat="45.07127" lon="2.75876">
        <ele>1462.401489</ele>
        <time>2011-09-01T17:24:32Z</time>
      </trkpt>
      <trkpt lat="45.07149" lon="2.75785">
        <ele>1446.46167</ele>
        <time>2011-09-01T17:25:00Z</time>
      </trkpt>
      <trkpt lat="45.07183" lon="2.75675">
        <ele>1426.706543</ele>
        <time>2011-09-01T17:25:33Z</time>
      </trkpt>
      <trkpt lat="45.07219" lon="2.75578">
        <ele>1408.236938</ele>
        <time>2011-09-01T17:26:04Z</time>
      </trkpt>
      <trkpt lat="45.07214" lon="2.75543">
        <ele>1406.961304</ele>
        <time>2011-09-01T17:26:14Z</time>
      </trkpt>
      <trkpt lat="45.07166" lon="2.75371">
        <ele>1396.275879</ele>
        <time>2011-09-01T17:27:07Z</time>
      </trkpt>
      <trkpt lat="45.07177" lon="2.75346">
        <ele>1392.84082</ele>
        <time>2011-09-01T17:27:15Z</time>
      </trkpt>
      <trkpt lat="45.07195" lon="2.75327">
        <ele>1390.069092</ele>
        <time>2011-09-01T17:27:24Z</time>
      </trkpt>
      <trkpt lat="45.0727" lon="2.75269">
        <ele>1380.536133</ele>
        <time>2011-09-01T17:27:58Z</time>
      </trkpt>
      <trkpt lat="45.07304" lon="2.75271">
        <ele>1374.008057</ele>
        <time>2011-09-01T17:28:12Z</time>
      </trkpt>
      <trkpt lat="45.07359" lon="2.75272">
        <ele>1365.990845</ele>
        <time>2011-09-01T17:28:34Z</time>
      </trkpt>
      <trkpt lat="45.0745" lon="2.75274">
        <ele>1351.400635</ele>
        <time>2011-09-01T17:29:10Z</time>
      </trkpt>
      <trkpt lat="45.07561" lon="2.75217">
        <ele>1335.644409</ele>
        <time>2011-09-01T17:29:58Z</time>
      </trkpt>
      <trkpt lat="45.07654" lon="2.7519">
        <ele>1318.06958</ele>
        <time>2011-09-01T17:30:35Z</time>
      </trkpt>
      <trkpt lat="45.07687" lon="2.75164">
        <ele>1312.863647</ele>
        <time>2011-09-01T17:30:50Z</time>
      </trkpt>
      <trkpt lat="45.07727" lon="2.7512">
        <ele>1304.859741</ele>
        <time>2011-09-01T17:31:11Z</time>
      </trkpt>
      <trkpt lat="45.07778" lon="2.75105">
        <ele>1288.138916</ele>
        <time>2011-09-01T17:31:31Z</time>
      </trkpt>
      <trkpt lat="45.0784" lon="2.75073">
        <ele>1283.639893</ele>
        <time>2011-09-01T17:31:58Z</time>
      </trkpt>
      <trkpt lat="45.07869" lon="2.75074">
        <ele>1281.085449</ele>
        <time>2011-09-01T17:32:10Z</time>
      </trkpt>
      <trkpt lat="45.07896" lon="2.7508">
        <ele>1276.884277</ele>
        <time>2011-09-01T17:32:21Z</time>
      </trkpt>
      <trkpt lat="45.07909" lon="2.75083">
        <ele>1274.655151</ele>
        <time>2011-09-01T17:32:26Z</time>
      </trkpt>
      <trkpt lat="45.07909" lon="2.75105">
        <ele>1271.739502</ele>
        <time>2011-09-01T17:32:32Z</time>
      </trkpt>
      <trkpt lat="45.07912" lon="2.75132">
        <ele>1271.641602</ele>
        <time>2011-09-01T17:32:39Z</time>
      </trkpt>
      <trkpt lat="45.07934" lon="2.75161">
        <ele>1271.130859</ele>
        <time>2011-09-01T17:32:52Z</time>
      </trkpt>
      <trkpt lat="45.07962" lon="2.75179">
        <ele>1271.186401</ele>
        <time>2011-09-01T17:33:04Z</time>
      </trkpt>
      <trkpt lat="45.0801" lon="2.75183">
        <ele>1270.077026</ele>
        <time>2011-09-01T17:33:23Z</time>
      </trkpt>
      <trkpt lat="45.0806" lon="2.75142">
        <ele>1263.38855</ele>
        <time>2011-09-01T17:33:46Z</time>
      </trkpt>
      <trkpt lat="45.08125" lon="2.75098">
        <ele>1255.117676</ele>
        <time>2011-09-01T17:34:15Z</time>
      </trkpt>
      <trkpt lat="45.08152" lon="2.75099">
        <ele>1253.287598</ele>
        <time>2011-09-01T17:34:26Z</time>
      </trkpt>
      <trkpt lat="45.08185" lon="2.75098">
        <ele>1250.743042</ele>
        <time>2011-09-01T17:34:39Z</time>
      </trkpt>
      <trkpt lat="45.08201" lon="2.75087">
        <ele>1248.357056</ele>
        <time>2011-09-01T17:34:46Z</time>
      </trkpt>
      <trkpt lat="45.08212" lon="2.75054">
        <ele>1244.847656</ele>
        <time>2011-09-01T17:34:56Z</time>
      </trkpt>
      <trkpt lat="45.08223" lon="2.75011">
        <ele>1242.59314</ele>
        <time>2011-09-01T17:35:09Z</time>
      </trkpt>
    </trkseg>
  </trk>
</gpx>